<?xml version="1.0" encoding="UTF-8" standalone="no" ?><gpx xmlns="http://www.topografix.com/GPX/1/1" xmlns:gpxx="http://www.garmin.com/xmlschemas/GpxExtensions/v3" xmlns:wptx1="http://www.garmin.com/xmlschemas/WaypointExtension/v1" xmlns:gpxtpx="http://www.garmin.com/xmlschemas/TrackPointExtension/v1" creator="GuideVTT.com" version="1.1" xmlns:xsi="http://www.w3.org/2001/XMLSchema-instance" xsi:schemaLocation="http://www.topografix.com/GPX/1/1 http://www.topografix.com/GPX/1/1/gpx.xsd http://www.garmin.com/xmlschemas/GpxExtensions/v3 http://www8.garmin.com/xmlschemas/GpxExtensionsv3.xsd http://www.garmin.com/xmlschemas/WaypointExtension/v1 http://www8.garmin.com/xmlschemas/WaypointExtensionv1.xsd http://www.garmin.com/xmlschemas/TrackPointExtension/v1 http://www.garmin.com/xmlschemas/TrackPointExtensionv1.xsd">
<metadata><link href="http://www.garmin.com"><text>Garmin International</text></link><time>2013-06-22T15:13:50Z</time></metadata>
<trk><name>rp_vtt_2012_14_bis_alt.gpx</name><extensions><gpxx:TrackExtension><gpxx:DisplayColor>Cyan</gpxx:DisplayColor></gpxx:TrackExtension></extensions><trkseg>
<trkpt lat="46.7936664261" lon="7.1400816366"><ele></ele><time>2014-4-27T11:22:14Z</time></trkpt>
<trkpt lat="46.7936664261" lon="7.1400816366"><ele></ele><time>2014-4-27T11:22:17Z</time></trkpt>
<trkpt lat="46.7936776578" lon="7.1400850732"><ele></ele><time>2014-4-27T11:22:20Z</time></trkpt>
<trkpt lat="46.7936776578" lon="7.1400850732"><ele></ele><time>2014-4-27T11:22:23Z</time></trkpt>
<trkpt lat="46.7936776578" lon="7.1400850732"><ele></ele><time>2014-4-27T11:22:26Z</time></trkpt>
<trkpt lat="46.7936682701" lon="7.1400911082"><ele></ele><time>2014-4-27T11:22:29Z</time></trkpt>
<trkpt lat="46.7936682701" lon="7.1400911082"><ele></ele><time>2014-4-27T11:22:32Z</time></trkpt>
<trkpt lat="46.7936682701" lon="7.1400911082"><ele></ele><time>2014-4-27T11:22:35Z</time></trkpt>
<trkpt lat="46.7936708685" lon="7.1401046868"><ele></ele><time>2014-4-27T11:22:38Z</time></trkpt>
<trkpt lat="46.7936771549" lon="7.1401069500"><ele></ele><time>2014-4-27T11:22:41Z</time></trkpt>
<trkpt lat="46.7936861236" lon="7.1401087940"><ele></ele><time>2014-4-27T11:22:44Z</time></trkpt>
<trkpt lat="46.7936861236" lon="7.1401087940"><ele></ele><time>2014-4-27T11:22:47Z</time></trkpt>
<trkpt lat="46.7936871294" lon="7.1401196066"><ele></ele><time>2014-4-27T11:22:50Z</time></trkpt>
<trkpt lat="46.7936871294" lon="7.1401196066"><ele></ele><time>2014-4-27T11:22:53Z</time></trkpt>
<trkpt lat="46.7936805077" lon="7.1401180979"><ele></ele><time>2014-4-27T11:22:56Z</time></trkpt>
<trkpt lat="46.7936805077" lon="7.1401180979"><ele></ele><time>2014-4-27T11:22:59Z</time></trkpt>
<trkpt lat="46.7936815135" lon="7.1401146613"><ele></ele><time>2014-4-27T11:23:2Z</time></trkpt>
<trkpt lat="46.7936815135" lon="7.1401146613"><ele></ele><time>2014-4-27T11:23:5Z</time></trkpt>
<trkpt lat="46.7936841119" lon="7.1401213668"><ele></ele><time>2014-4-27T11:23:8Z</time></trkpt>
<trkpt lat="46.7936841119" lon="7.1401213668"><ele></ele><time>2014-4-27T11:23:11Z</time></trkpt>
<trkpt lat="46.7936845310" lon="7.1401341911"><ele></ele><time>2014-4-27T11:23:14Z</time></trkpt>
<trkpt lat="46.7936845310" lon="7.1401341911"><ele></ele><time>2014-4-27T11:23:17Z</time></trkpt>
<trkpt lat="46.7936845310" lon="7.1401341911"><ele></ele><time>2014-4-27T11:23:20Z</time></trkpt>
<trkpt lat="46.7936749756" lon="7.1401273180"><ele></ele><time>2014-4-27T11:23:23Z</time></trkpt>
<trkpt lat="46.7935868818" lon="7.1400975622"><ele></ele><time>2014-4-27T11:23:26Z</time></trkpt>
<trkpt lat="46.7934412044" lon="7.1401559003"><ele></ele><time>2014-4-27T11:23:29Z</time></trkpt>
<trkpt lat="46.7933216784" lon="7.1402635239"><ele></ele><time>2014-4-27T11:23:32Z</time></trkpt>
<trkpt lat="46.7931197584" lon="7.1403636876"><ele></ele><time>2014-4-27T11:23:35Z</time></trkpt>
<trkpt lat="46.7928497773" lon="7.1404377837"><ele></ele><time>2014-4-27T11:23:38Z</time></trkpt>
<trkpt lat="46.7927003279" lon="7.1404961217"><ele></ele><time>2014-4-27T11:23:41Z</time></trkpt>
<trkpt lat="46.7926284950" lon="7.1403542161"><ele></ele><time>2014-4-27T11:23:44Z</time></trkpt>
<trkpt lat="46.7925784551" lon="7.1398346219"><ele></ele><time>2014-4-27T11:23:47Z</time></trkpt>
<trkpt lat="46.7926206160" lon="7.1395288501"><ele></ele><time>2014-4-27T11:23:50Z</time></trkpt>
<trkpt lat="46.7927321792" lon="7.1390877943"><ele></ele><time>2014-4-27T11:23:53Z</time></trkpt>
<trkpt lat="46.7926272377" lon="7.1386575513"><ele></ele><time>2014-4-27T11:23:56Z</time></trkpt>
<trkpt lat="46.7927698977" lon="7.1381242946"><ele></ele><time>2014-4-27T11:23:59Z</time></trkpt>
<trkpt lat="46.7929185927" lon="7.1375554148"><ele></ele><time>2014-4-27T11:24:2Z</time></trkpt>
<trkpt lat="46.7929802835" lon="7.1370721143"><ele></ele><time>2014-4-27T11:24:5Z</time></trkpt>
<trkpt lat="46.7930411361" lon="7.1362469159"><ele></ele><time>2014-4-27T11:24:8Z</time></trkpt>
<trkpt lat="46.7930895835" lon="7.1355306823"><ele></ele><time>2014-4-27T11:24:11Z</time></trkpt>
<trkpt lat="46.7931439821" lon="7.1349806618"><ele></ele><time>2014-4-27T11:24:14Z</time></trkpt>
<trkpt lat="46.7931397073" lon="7.1348118503"><ele></ele><time>2014-4-27T11:24:17Z</time></trkpt>
<trkpt lat="46.7931280565" lon="7.1345582977"><ele></ele><time>2014-4-27T11:24:20Z</time></trkpt>
<trkpt lat="46.7931463290" lon="7.1343066730"><ele></ele><time>2014-4-27T11:24:23Z</time></trkpt>
<trkpt lat="46.7932423856" lon="7.1334307641"><ele></ele><time>2014-4-27T11:24:26Z</time></trkpt>
<trkpt lat="46.7932678666" lon="7.1331942268"><ele></ele><time>2014-4-27T11:24:29Z</time></trkpt>
<trkpt lat="46.7933769990" lon="7.1327391732"><ele></ele><time>2014-4-27T11:24:32Z</time></trkpt>
<trkpt lat="46.7934031505" lon="7.1325805038"><ele></ele><time>2014-4-27T11:24:35Z</time></trkpt>
<trkpt lat="46.7934805993" lon="7.1321963612"><ele></ele><time>2014-4-27T11:24:38Z</time></trkpt>
<trkpt lat="46.7939461302" lon="7.1315952949"><ele></ele><time>2014-4-27T11:24:41Z</time></trkpt>
<trkpt lat="46.7947887629" lon="7.1310121659"><ele></ele><time>2014-4-27T11:24:44Z</time></trkpt>
<trkpt lat="46.7954586446" lon="7.1305898856"><ele></ele><time>2014-4-27T11:24:47Z</time></trkpt>
<trkpt lat="46.7960500717" lon="7.1301768254"><ele></ele><time>2014-4-27T11:24:50Z</time></trkpt>
<trkpt lat="46.7961443681" lon="7.1299673617"><ele></ele><time>2014-4-27T11:24:53Z</time></trkpt>
<trkpt lat="46.7960908916" lon="7.1299005579"><ele></ele><time>2014-4-27T11:24:56Z</time></trkpt>
<trkpt lat="46.7960088328" lon="7.1296601649"><ele></ele><time>2014-4-27T11:24:59Z</time></trkpt>
<trkpt lat="46.7961164564" lon="7.1294586640"><ele></ele><time>2014-4-27T11:25:2Z</time></trkpt>
<trkpt lat="46.7963085696" lon="7.1292727534"><ele></ele><time>2014-4-27T11:25:5Z</time></trkpt>
<trkpt lat="46.7965033650" lon="7.1290889382"><ele></ele><time>2014-4-27T11:25:8Z</time></trkpt>
<trkpt lat="46.7966444325" lon="7.1286985092"><ele></ele><time>2014-4-27T11:25:11Z</time></trkpt>
<trkpt lat="46.7967414949" lon="7.1282659192"><ele></ele><time>2014-4-27T11:25:14Z</time></trkpt>
<trkpt lat="46.7968378030" lon="7.1278515179"><ele></ele><time>2014-4-27T11:25:17Z</time></trkpt>
<trkpt lat="46.7969408166" lon="7.1275178343"><ele></ele><time>2014-4-27T11:25:20Z</time></trkpt>
<trkpt lat="46.7970038485" lon="7.1271958854"><ele></ele><time>2014-4-27T11:25:23Z</time></trkpt>
<trkpt lat="46.7970836442" lon="7.1268716734"><ele></ele><time>2014-4-27T11:25:26Z</time></trkpt>
<trkpt lat="46.7971342709" lon="7.1266551688"><ele></ele><time>2014-4-27T11:25:29Z</time></trkpt>
<trkpt lat="46.7971585784" lon="7.1263120137"><ele></ele><time>2014-4-27T11:25:32Z</time></trkpt>
<trkpt lat="46.7971383780" lon="7.1258902363"><ele></ele><time>2014-4-27T11:25:35Z</time></trkpt>
<trkpt lat="46.7971133161" lon="7.1254475042"><ele></ele><time>2014-4-27T11:25:38Z</time></trkpt>
<trkpt lat="46.7970744241" lon="7.1249533910"><ele></ele><time>2014-4-27T11:25:41Z</time></trkpt>
<trkpt lat="46.7970630247" lon="7.1245888621"><ele></ele><time>2014-4-27T11:25:44Z</time></trkpt>
<trkpt lat="46.7970235460" lon="7.1241217386"><ele></ele><time>2014-4-27T11:25:47Z</time></trkpt>
<trkpt lat="46.7970291618" lon="7.1238119435"><ele></ele><time>2014-4-27T11:25:50Z</time></trkpt>
<trkpt lat="46.7971489392" lon="7.1229934506"><ele></ele><time>2014-4-27T11:25:53Z</time></trkpt>
<trkpt lat="46.7972066067" lon="7.1225077193"><ele></ele><time>2014-4-27T11:25:56Z</time></trkpt>
<trkpt lat="46.7973402143" lon="7.1221424360"><ele></ele><time>2014-4-27T11:25:59Z</time></trkpt>
<trkpt lat="46.7977122869" lon="7.1219229978"><ele></ele><time>2014-4-27T11:26:2Z</time></trkpt>
<trkpt lat="46.7977293860" lon="7.1219022945"><ele></ele><time>2014-4-27T11:26:5Z</time></trkpt>
<trkpt lat="46.7978398595" lon="7.1219126042"><ele></ele><time>2014-4-27T11:26:8Z</time></trkpt>
<trkpt lat="46.7978895642" lon="7.1219045576"><ele></ele><time>2014-4-27T11:26:11Z</time></trkpt>
<trkpt lat="46.7979813460" lon="7.1219218243"><ele></ele><time>2014-4-27T11:26:14Z</time></trkpt>
<trkpt lat="46.7981541809" lon="7.1217367519"><ele></ele><time>2014-4-27T11:26:17Z</time></trkpt>
<trkpt lat="46.7981133610" lon="7.1209955402"><ele></ele><time>2014-4-27T11:26:20Z</time></trkpt>
<trkpt lat="46.7980176397" lon="7.1202218905"><ele></ele><time>2014-4-27T11:26:23Z</time></trkpt>
<trkpt lat="46.7980069108" lon="7.1201575175"><ele></ele><time>2014-4-27T11:26:26Z</time></trkpt>
<trkpt lat="46.7980116885" lon="7.1196875442"><ele></ele><time>2014-4-27T11:26:29Z</time></trkpt>
<trkpt lat="46.7980501615" lon="7.1193767432"><ele></ele><time>2014-4-27T11:26:32Z</time></trkpt>
<trkpt lat="46.7980562802" lon="7.1190469991"><ele></ele><time>2014-4-27T11:26:35Z</time></trkpt>
<trkpt lat="46.7980494071" lon="7.1189273056"><ele></ele><time>2014-4-27T11:26:38Z</time></trkpt>
<trkpt lat="46.7981182225" lon="7.1183670592"><ele></ele><time>2014-4-27T11:26:41Z</time></trkpt>
<trkpt lat="46.7981281970" lon="7.1178473812"><ele></ele><time>2014-4-27T11:26:44Z</time></trkpt>
<trkpt lat="46.7979401909" lon="7.1174677648"><ele></ele><time>2014-4-27T11:26:47Z</time></trkpt>
<trkpt lat="46.7977826111" lon="7.1172199957"><ele></ele><time>2014-4-27T11:26:50Z</time></trkpt>
<trkpt lat="46.7975957785" lon="7.1170569677"><ele></ele><time>2014-4-27T11:26:53Z</time></trkpt>
<trkpt lat="46.7974293139" lon="7.1167310793"><ele></ele><time>2014-4-27T11:26:56Z</time></trkpt>
<trkpt lat="46.7973828781" lon="7.1166075300"><ele></ele><time>2014-4-27T11:26:59Z</time></trkpt>
<trkpt lat="46.7972346861" lon="7.1162010916"><ele></ele><time>2014-4-27T11:27:2Z</time></trkpt>
<trkpt lat="46.7970572412" lon="7.1157105826"><ele></ele><time>2014-4-27T11:27:5Z</time></trkpt>
<trkpt lat="46.7969003320" lon="7.1153123584"><ele></ele><time>2014-4-27T11:27:8Z</time></trkpt>
<trkpt lat="46.7968541477" lon="7.1151401941"><ele></ele><time>2014-4-27T11:27:11Z</time></trkpt>
<trkpt lat="46.7968399823" lon="7.1146690473"><ele></ele><time>2014-4-27T11:27:14Z</time></trkpt>
<trkpt lat="46.7968974821" lon="7.1142365411"><ele></ele><time>2014-4-27T11:27:17Z</time></trkpt>
<trkpt lat="46.7970802076" lon="7.1136492211"><ele></ele><time>2014-4-27T11:27:20Z</time></trkpt>
<trkpt lat="46.7971367016" lon="7.1130556148"><ele></ele><time>2014-4-27T11:27:23Z</time></trkpt>
<trkpt lat="46.7972480971" lon="7.1125799417"><ele></ele><time>2014-4-27T11:27:26Z</time></trkpt>
<trkpt lat="46.7972229514" lon="7.1120786201"><ele></ele><time>2014-4-27T11:27:29Z</time></trkpt>
<trkpt lat="46.7969495337" lon="7.1114012785"><ele></ele><time>2014-4-27T11:27:32Z</time></trkpt>
<trkpt lat="46.7968810536" lon="7.1110832691"><ele></ele><time>2014-4-27T11:27:35Z</time></trkpt>
<trkpt lat="46.7966943886" lon="7.1101716533"><ele></ele><time>2014-4-27T11:27:38Z</time></trkpt>
<trkpt lat="46.7966354638" lon="7.1100026742"><ele></ele><time>2014-4-27T11:27:41Z</time></trkpt>
<trkpt lat="46.7964954022" lon="7.1095326170"><ele></ele><time>2014-4-27T11:27:44Z</time></trkpt>
<trkpt lat="46.7963485513" lon="7.1091065649"><ele></ele><time>2014-4-27T11:27:47Z</time></trkpt>
<trkpt lat="46.7962260917" lon="7.1088157129"><ele></ele><time>2014-4-27T11:27:50Z</time></trkpt>
<trkpt lat="46.7961209826" lon="7.1084269602"><ele></ele><time>2014-4-27T11:27:53Z</time></trkpt>
<trkpt lat="46.7961234134" lon="7.1084099449"><ele></ele><time>2014-4-27T11:27:56Z</time></trkpt>
<trkpt lat="46.7962097470" lon="7.1084651817"><ele></ele><time>2014-4-27T11:27:59Z</time></trkpt>
<trkpt lat="46.7962558474" lon="7.1085624956"><ele></ele><time>2014-4-27T11:28:2Z</time></trkpt>
<trkpt lat="46.7963244952" lon="7.1086292993"><ele></ele><time>2014-4-27T11:28:5Z</time></trkpt>
<trkpt lat="46.7963944841" lon="7.1086547803"><ele></ele><time>2014-4-27T11:28:8Z</time></trkpt>
<trkpt lat="46.7964166123" lon="7.1086792555"><ele></ele><time>2014-4-27T11:28:11Z</time></trkpt>
<trkpt lat="46.7965674866" lon="7.1086809319"><ele></ele><time>2014-4-27T11:28:14Z</time></trkpt>
<trkpt lat="46.7966187838" lon="7.1087325644"><ele></ele><time>2014-4-27T11:28:17Z</time></trkpt>
<trkpt lat="46.7967791297" lon="7.1090448741"><ele></ele><time>2014-4-27T11:28:20Z</time></trkpt>
<trkpt lat="46.7968531419" lon="7.1092293598"><ele></ele><time>2014-4-27T11:28:23Z</time></trkpt>
<trkpt lat="46.7968606856" lon="7.1092711855"><ele></ele><time>2014-4-27T11:28:26Z</time></trkpt>
<trkpt lat="46.7969968915" lon="7.1095274203"><ele></ele><time>2014-4-27T11:28:29Z</time></trkpt>
<trkpt lat="46.7970701493" lon="7.1097751893"><ele></ele><time>2014-4-27T11:28:32Z</time></trkpt>
<trkpt lat="46.7971084546" lon="7.1099107247"><ele></ele><time>2014-4-27T11:28:35Z</time></trkpt>
<trkpt lat="46.7971285712" lon="7.1100068651"><ele></ele><time>2014-4-27T11:28:38Z</time></trkpt>
<trkpt lat="46.7971820477" lon="7.1101239603"><ele></ele><time>2014-4-27T11:28:41Z</time></trkpt>
<trkpt lat="46.7972707283" lon="7.1100967191"><ele></ele><time>2014-4-27T11:28:44Z</time></trkpt>
<trkpt lat="46.7975456547" lon="7.1100959647"><ele></ele><time>2014-4-27T11:28:47Z</time></trkpt>
<trkpt lat="46.7976605706" lon="7.1100838110"><ele></ele><time>2014-4-27T11:28:50Z</time></trkpt>
<trkpt lat="46.7977410369" lon="7.1101406403"><ele></ele><time>2014-4-27T11:28:53Z</time></trkpt>
<trkpt lat="46.7977558728" lon="7.1101859026"><ele></ele><time>2014-4-27T11:28:56Z</time></trkpt>
<trkpt lat="46.7977956869" lon="7.1102319192"><ele></ele><time>2014-4-27T11:28:59Z</time></trkpt>
<trkpt lat="46.7979236785" lon="7.1104190033"><ele></ele><time>2014-4-27T11:29:2Z</time></trkpt>
<trkpt lat="46.7979370896" lon="7.1104423888"><ele></ele><time>2014-4-27T11:29:5Z</time></trkpt>
<trkpt lat="46.7979674321" lon="7.1104725637"><ele></ele><time>2014-4-27T11:29:8Z</time></trkpt>
<trkpt lat="46.7980438750" lon="7.1106378548"><ele></ele><time>2014-4-27T11:29:11Z</time></trkpt>
<trkpt lat="46.7981202342" lon="7.1108363383"><ele></ele><time>2014-4-27T11:29:14Z</time></trkpt>
<trkpt lat="46.7981749680" lon="7.1108919941"><ele></ele><time>2014-4-27T11:29:17Z</time></trkpt>
<trkpt lat="46.7983230762" lon="7.1110359952"><ele></ele><time>2014-4-27T11:29:20Z</time></trkpt>
<trkpt lat="46.7984305322" lon="7.1111569460"><ele></ele><time>2014-4-27T11:29:23Z</time></trkpt>
<trkpt lat="46.7986580171" lon="7.1113902982"><ele></ele><time>2014-4-27T11:29:26Z</time></trkpt>
<trkpt lat="46.7988458555" lon="7.1115032863"><ele></ele><time>2014-4-27T11:29:29Z</time></trkpt>
<trkpt lat="46.7991148308" lon="7.1114482172"><ele></ele><time>2014-4-27T11:29:32Z</time></trkpt>
<trkpt lat="46.7993598338" lon="7.1113832574"><ele></ele><time>2014-4-27T11:29:35Z</time></trkpt>
<trkpt lat="46.7994910106" lon="7.1113804076"><ele></ele><time>2014-4-27T11:29:38Z</time></trkpt>
<trkpt lat="46.7997658532" lon="7.1112856083"><ele></ele><time>2014-4-27T11:29:41Z</time></trkpt>
<trkpt lat="46.8002006225" lon="7.1110541839"><ele></ele><time>2014-4-27T11:29:44Z</time></trkpt>
<trkpt lat="46.8002359103" lon="7.1110052336"><ele></ele><time>2014-4-27T11:29:47Z</time></trkpt>
<trkpt lat="46.8002735451" lon="7.1109292097"><ele></ele><time>2014-4-27T11:29:50Z</time></trkpt>
<trkpt lat="46.8001976050" lon="7.1107443888"><ele></ele><time>2014-4-27T11:29:53Z</time></trkpt>
<trkpt lat="46.7999588884" lon="7.1102783550"><ele></ele><time>2014-4-27T11:29:56Z</time></trkpt>
<trkpt lat="46.7996465787" lon="7.1096729301"><ele></ele><time>2014-4-27T11:29:59Z</time></trkpt>
<trkpt lat="46.7995161563" lon="7.1094990894"><ele></ele><time>2014-4-27T11:30:2Z</time></trkpt>
<trkpt lat="46.7994750850" lon="7.1094799787"><ele></ele><time>2014-4-27T11:30:5Z</time></trkpt>
<trkpt lat="46.7993615102" lon="7.1092252526"><ele></ele><time>2014-4-27T11:30:8Z</time></trkpt>
<trkpt lat="46.7993960436" lon="7.1087020542"><ele></ele><time>2014-4-27T11:30:11Z</time></trkpt>
<trkpt lat="46.7994139809" lon="7.1085406188"><ele></ele><time>2014-4-27T11:30:14Z</time></trkpt>
<trkpt lat="46.7994573992" lon="7.1083241981"><ele></ele><time>2014-4-27T11:30:17Z</time></trkpt>
<trkpt lat="46.7995384522" lon="7.1080464218"><ele></ele><time>2014-4-27T11:30:20Z</time></trkpt>
<trkpt lat="46.7995481752" lon="7.1079783607"><ele></ele><time>2014-4-27T11:30:23Z</time></trkpt>
<trkpt lat="46.7996989656" lon="7.1077980660"><ele></ele><time>2014-4-27T11:30:26Z</time></trkpt>
<trkpt lat="46.7999014724" lon="7.1074849181"><ele></ele><time>2014-4-27T11:30:29Z</time></trkpt>
<trkpt lat="46.7999014724" lon="7.1074849181"><ele></ele><time>2014-4-27T11:30:32Z</time></trkpt>
<trkpt lat="46.7997012287" lon="7.1072811540"><ele></ele><time>2014-4-27T11:30:35Z</time></trkpt>
<trkpt lat="46.7993698921" lon="7.1070450358"><ele></ele><time>2014-4-27T11:30:38Z</time></trkpt>
<trkpt lat="46.7992402241" lon="7.1068527550"><ele></ele><time>2014-4-27T11:30:41Z</time></trkpt>
<trkpt lat="46.7991368752" lon="7.1066712867"><ele></ele><time>2014-4-27T11:30:44Z</time></trkpt>
<trkpt lat="46.7990600970" lon="7.1063926723"><ele></ele><time>2014-4-27T11:30:47Z</time></trkpt>
<trkpt lat="46.7990005855" lon="7.1061620861"><ele></ele><time>2014-4-27T11:30:50Z</time></trkpt>
<trkpt lat="46.7989085522" lon="7.1058442444"><ele></ele><time>2014-4-27T11:30:53Z</time></trkpt>
<trkpt lat="46.7988198716" lon="7.1056188550"><ele></ele><time>2014-4-27T11:30:56Z</time></trkpt>
<trkpt lat="46.7987533193" lon="7.1054942999"><ele></ele><time>2014-4-27T11:30:59Z</time></trkpt>
<trkpt lat="46.7986927181" lon="7.1053378936"><ele></ele><time>2014-4-27T11:31:2Z</time></trkpt>
<trkpt lat="46.7987624556" lon="7.1051469538"><ele></ele><time>2014-4-27T11:31:5Z</time></trkpt>
<trkpt lat="46.7988267448" lon="7.1048956644"><ele></ele><time>2014-4-27T11:31:8Z</time></trkpt>
<trkpt lat="46.7989386432" lon="7.1045638248"><ele></ele><time>2014-4-27T11:31:11Z</time></trkpt>
<trkpt lat="46.7989732604" lon="7.1044754796"><ele></ele><time>2014-4-27T11:31:14Z</time></trkpt>
<trkpt lat="46.7990865838" lon="7.1043527685"><ele></ele><time>2014-4-27T11:31:17Z</time></trkpt>
<trkpt lat="46.7992911860" lon="7.1043157205"><ele></ele><time>2014-4-27T11:31:20Z</time></trkpt>
<trkpt lat="46.7996032443" lon="7.1042101923"><ele></ele><time>2014-4-27T11:31:23Z</time></trkpt>
<trkpt lat="46.7999629118" lon="7.1039668657"><ele></ele><time>2014-4-27T11:31:26Z</time></trkpt>
<trkpt lat="46.8000990339" lon="7.1037745010"><ele></ele><time>2014-4-27T11:31:29Z</time></trkpt>
<trkpt lat="46.8001659214" lon="7.1037019137"><ele></ele><time>2014-4-27T11:31:32Z</time></trkpt>
<trkpt lat="46.8003237527" lon="7.1038833819"><ele></ele><time>2014-4-27T11:31:35Z</time></trkpt>
<trkpt lat="46.8003889639" lon="7.1039735712"><ele></ele><time>2014-4-27T11:31:38Z</time></trkpt>
<trkpt lat="46.8004088290" lon="7.1039970405"><ele></ele><time>2014-4-27T11:31:41Z</time></trkpt>
<trkpt lat="46.8004138581" lon="7.1040166542"><ele></ele><time>2014-4-27T11:31:44Z</time></trkpt>
<trkpt lat="46.8004893791" lon="7.1039656922"><ele></ele><time>2014-4-27T11:31:47Z</time></trkpt>
<trkpt lat="46.8006265908" lon="7.1039165743"><ele></ele><time>2014-4-27T11:31:50Z</time></trkpt>
<trkpt lat="46.8008389045" lon="7.1038418915"><ele></ele><time>2014-4-27T11:31:53Z</time></trkpt>
<trkpt lat="46.8009536527" lon="7.1038019098"><ele></ele><time>2014-4-27T11:31:56Z</time></trkpt>
<trkpt lat="46.8010692392" lon="7.1035667975"><ele></ele><time>2014-4-27T11:31:59Z</time></trkpt>
<trkpt lat="46.8009585142" lon="7.1029115003"><ele></ele><time>2014-4-27T11:32:2Z</time></trkpt>
<trkpt lat="46.8008442689" lon="7.1024419460"><ele></ele><time>2014-4-27T11:32:5Z</time></trkpt>
<trkpt lat="46.8007373158" lon="7.1020293888"><ele></ele><time>2014-4-27T11:32:8Z</time></trkpt>
<trkpt lat="46.8008026946" lon="7.1018542070"><ele></ele><time>2014-4-27T11:32:11Z</time></trkpt>
<trkpt lat="46.8011758570" lon="7.1014045179"><ele></ele><time>2014-4-27T11:32:14Z</time></trkpt>
<trkpt lat="46.8013732508" lon="7.1009826567"><ele></ele><time>2014-4-27T11:32:17Z</time></trkpt>
<trkpt lat="46.8013614323" lon="7.1007987577"><ele></ele><time>2014-4-27T11:32:20Z</time></trkpt>
<trkpt lat="46.8013300002" lon="7.1004635654"><ele></ele><time>2014-4-27T11:32:23Z</time></trkpt>
<trkpt lat="46.8015106302" lon="7.1002624836"><ele></ele><time>2014-4-27T11:32:26Z</time></trkpt>
<trkpt lat="46.8019495904" lon="7.1001822688"><ele></ele><time>2014-4-27T11:32:29Z</time></trkpt>
<trkpt lat="46.8020257819" lon="7.0999208372"><ele></ele><time>2014-4-27T11:32:32Z</time></trkpt>
<trkpt lat="46.8020302244" lon="7.0995467529"><ele></ele><time>2014-4-27T11:32:35Z</time></trkpt>
<trkpt lat="46.8022147100" lon="7.0992797054"><ele></ele><time>2014-4-27T11:32:38Z</time></trkpt>
<trkpt lat="46.8024448771" lon="7.0992253069"><ele></ele><time>2014-4-27T11:32:41Z</time></trkpt>
<trkpt lat="46.8026536703" lon="7.0991963893"><ele></ele><time>2014-4-27T11:32:44Z</time></trkpt>
<trkpt lat="46.8029009365" lon="7.0991218742"><ele></ele><time>2014-4-27T11:32:47Z</time></trkpt>
<trkpt lat="46.8032395653" lon="7.0990479458"><ele></ele><time>2014-4-27T11:32:50Z</time></trkpt>
<trkpt lat="46.8034667987" lon="7.0989034418"><ele></ele><time>2014-4-27T11:32:53Z</time></trkpt>
<trkpt lat="46.8035005778" lon="7.0985373203"><ele></ele><time>2014-4-27T11:32:56Z</time></trkpt>
<trkpt lat="46.8035112228" lon="7.0983779803"><ele></ele><time>2014-4-27T11:32:59Z</time></trkpt>
<trkpt lat="46.8035413977" lon="7.0981722884"><ele></ele><time>2014-4-27T11:33:2Z</time></trkpt>
<trkpt lat="46.8038498517" lon="7.0973404683"><ele></ele><time>2014-4-27T11:33:5Z</time></trkpt>
<trkpt lat="46.8039434776" lon="7.0969262347"><ele></ele><time>2014-4-27T11:33:8Z</time></trkpt>
<trkpt lat="46.8040184118" lon="7.0966081414"><ele></ele><time>2014-4-27T11:33:11Z</time></trkpt>
<trkpt lat="46.8041863013" lon="7.0963873621"><ele></ele><time>2014-4-27T11:33:14Z</time></trkpt>
<trkpt lat="46.8043104373" lon="7.0962578617"><ele></ele><time>2014-4-27T11:33:17Z</time></trkpt>
<trkpt lat="46.8043485750" lon="7.0961131901"><ele></ele><time>2014-4-27T11:33:20Z</time></trkpt>
<trkpt lat="46.8043408636" lon="7.0959875453"><ele></ele><time>2014-4-27T11:33:23Z</time></trkpt>
<trkpt lat="46.8042961042" lon="7.0954589825"><ele></ele><time>2014-4-27T11:33:26Z</time></trkpt>
<trkpt lat="46.8043629918" lon="7.0948823076"><ele></ele><time>2014-4-27T11:33:29Z</time></trkpt>
<trkpt lat="46.8043893948" lon="7.0945740212"><ele></ele><time>2014-4-27T11:33:32Z</time></trkpt>
<trkpt lat="46.8042873871" lon="7.0944501366"><ele></ele><time>2014-4-27T11:33:35Z</time></trkpt>
<trkpt lat="46.8042157218" lon="7.0944000967"><ele></ele><time>2014-4-27T11:33:38Z</time></trkpt>
<trkpt lat="46.8041894864" lon="7.0942577720"><ele></ele><time>2014-4-27T11:33:41Z</time></trkpt>
<trkpt lat="46.8041808531" lon="7.0941536687"><ele></ele><time>2014-4-27T11:33:44Z</time></trkpt>
<trkpt lat="46.8042001314" lon="7.0939582027"><ele></ele><time>2014-4-27T11:33:47Z</time></trkpt>
<trkpt lat="46.8042099383" lon="7.0938405208"><ele></ele><time>2014-4-27T11:33:50Z</time></trkpt>
<trkpt lat="46.8041980360" lon="7.0935997088"><ele></ele><time>2014-4-27T11:33:53Z</time></trkpt>
<trkpt lat="46.8042931706" lon="7.0935650915"><ele></ele><time>2014-4-27T11:33:56Z</time></trkpt>
<trkpt lat="46.8045570329" lon="7.0931855589"><ele></ele><time>2014-4-27T11:33:59Z</time></trkpt>
<trkpt lat="46.8046333082" lon="7.0928356145"><ele></ele><time>2014-4-27T11:34:2Z</time></trkpt>
<trkpt lat="46.8046473898" lon="7.0928268135"><ele></ele><time>2014-4-27T11:34:5Z</time></trkpt>
<trkpt lat="46.8047038838" lon="7.0926791243"><ele></ele><time>2014-4-27T11:34:8Z</time></trkpt>
<trkpt lat="46.8049604539" lon="7.0924372226"><ele></ele><time>2014-4-27T11:34:11Z</time></trkpt>
<trkpt lat="46.8051255774" lon="7.0922527369"><ele></ele><time>2014-4-27T11:34:14Z</time></trkpt>
<trkpt lat="46.8053637072" lon="7.0919685066"><ele></ele><time>2014-4-27T11:34:17Z</time></trkpt>
<trkpt lat="46.8054005876" lon="7.0919327997"><ele></ele><time>2014-4-27T11:34:20Z</time></trkpt>
<trkpt lat="46.8055162579" lon="7.0915881358"><ele></ele><time>2014-4-27T11:34:23Z</time></trkpt>
<trkpt lat="46.8055399787" lon="7.0914641675"><ele></ele><time>2014-4-27T11:34:26Z</time></trkpt>
<trkpt lat="46.8056479376" lon="7.0910528675"><ele></ele><time>2014-4-27T11:34:29Z</time></trkpt>
<trkpt lat="46.8056572415" lon="7.0910141431"><ele></ele><time>2014-4-27T11:34:32Z</time></trkpt>
<trkpt lat="46.8056895118" lon="7.0908390451"><ele></ele><time>2014-4-27T11:34:35Z</time></trkpt>
<trkpt lat="46.8057764322" lon="7.0906356163"><ele></ele><time>2014-4-27T11:34:38Z</time></trkpt>
<trkpt lat="46.8058335129" lon="7.0904430002"><ele></ele><time>2014-4-27T11:34:41Z</time></trkpt>
<trkpt lat="46.8059646059" lon="7.0900301076"><ele></ele><time>2014-4-27T11:34:44Z</time></trkpt>
<trkpt lat="46.8061596528" lon="7.0897289459"><ele></ele><time>2014-4-27T11:34:47Z</time></trkpt>
<trkpt lat="46.8062013108" lon="7.0893930830"><ele></ele><time>2014-4-27T11:34:50Z</time></trkpt>
<trkpt lat="46.8061547074" lon="7.0891002193"><ele></ele><time>2014-4-27T11:34:53Z</time></trkpt>
<trkpt lat="46.8061406258" lon="7.0889503509"><ele></ele><time>2014-4-27T11:34:56Z</time></trkpt>
<trkpt lat="46.8061521929" lon="7.0888585690"><ele></ele><time>2014-4-27T11:34:59Z</time></trkpt>
<trkpt lat="46.8061501812" lon="7.0887274761"><ele></ele><time>2014-4-27T11:35:2Z</time></trkpt>
<trkpt lat="46.8061381113" lon="7.0886845607"><ele></ele><time>2014-4-27T11:35:5Z</time></trkpt>
<trkpt lat="46.8061381113" lon="7.0886845607"><ele></ele><time>2014-4-27T11:35:8Z</time></trkpt>
<trkpt lat="46.8061409611" lon="7.0886852313"><ele></ele><time>2014-4-27T11:35:11Z</time></trkpt>
<trkpt lat="46.8061409611" lon="7.0886852313"><ele></ele><time>2014-4-27T11:35:14Z</time></trkpt>
<trkpt lat="46.8062392808" lon="7.0886881649"><ele></ele><time>2014-4-27T11:35:17Z</time></trkpt>
<trkpt lat="46.8062406220" lon="7.0882353745"><ele></ele><time>2014-4-27T11:35:20Z</time></trkpt>
<trkpt lat="46.8062812742" lon="7.0878887828"><ele></ele><time>2014-4-27T11:35:23Z</time></trkpt>
<trkpt lat="46.8063967768" lon="7.0873696078"><ele></ele><time>2014-4-27T11:35:26Z</time></trkpt>
<trkpt lat="46.8065342400" lon="7.0867842995"><ele></ele><time>2014-4-27T11:35:29Z</time></trkpt>
<trkpt lat="46.8063169811" lon="7.0861273259"><ele></ele><time>2014-4-27T11:35:32Z</time></trkpt>
<trkpt lat="46.8060097843" lon="7.0856460370"><ele></ele><time>2014-4-27T11:35:35Z</time></trkpt>
<trkpt lat="46.8058874086" lon="7.0853966754"><ele></ele><time>2014-4-27T11:35:38Z</time></trkpt>
<trkpt lat="46.8058698066" lon="7.0852854475"><ele></ele><time>2014-4-27T11:35:41Z</time></trkpt>
<trkpt lat="46.8058242090" lon="7.0849471539"><ele></ele><time>2014-4-27T11:35:44Z</time></trkpt>
<trkpt lat="46.8057809584" lon="7.0847439766"><ele></ele><time>2014-4-27T11:35:47Z</time></trkpt>
<trkpt lat="46.8055349495" lon="7.0842632744"><ele></ele><time>2014-4-27T11:35:50Z</time></trkpt>
<trkpt lat="46.8053883500" lon="7.0840642881"><ele></ele><time>2014-4-27T11:35:53Z</time></trkpt>
<trkpt lat="46.8051124178" lon="7.0837102365"><ele></ele><time>2014-4-27T11:35:56Z</time></trkpt>
<trkpt lat="46.8049162813" lon="7.0835979190"><ele></ele><time>2014-4-27T11:35:59Z</time></trkpt>
<trkpt lat="46.8047432788" lon="7.0835392457"><ele></ele><time>2014-4-27T11:36:2Z</time></trkpt>
<trkpt lat="46.8045171350" lon="7.0832903869"><ele></ele><time>2014-4-27T11:36:5Z</time></trkpt>
<trkpt lat="46.8043121975" lon="7.0830554422"><ele></ele><time>2014-4-27T11:36:8Z</time></trkpt>
<trkpt lat="46.8042373471" lon="7.0829380956"><ele></ele><time>2014-4-27T11:36:11Z</time></trkpt>
<trkpt lat="46.8040718045" lon="7.0827851258"><ele></ele><time>2014-4-27T11:36:14Z</time></trkpt>
<trkpt lat="46.8040241115" lon="7.0827229321"><ele></ele><time>2014-4-27T11:36:17Z</time></trkpt>
<trkpt lat="46.8039485067" lon="7.0826776698"><ele></ele><time>2014-4-27T11:36:20Z</time></trkpt>
<trkpt lat="46.8036954571" lon="7.0825161505"><ele></ele><time>2014-4-27T11:36:23Z</time></trkpt>
<trkpt lat="46.8034791201" lon="7.0823510271"><ele></ele><time>2014-4-27T11:36:26Z</time></trkpt>
<trkpt lat="46.8034335226" lon="7.0823133923"><ele></ele><time>2014-4-27T11:36:29Z</time></trkpt>
<trkpt lat="46.8032116536" lon="7.0822976343"><ele></ele><time>2014-4-27T11:36:32Z</time></trkpt>
<trkpt lat="46.8030493800" lon="7.0822166651"><ele></ele><time>2014-4-27T11:36:35Z</time></trkpt>
<trkpt lat="46.8028750364" lon="7.0820366219"><ele></ele><time>2014-4-27T11:36:38Z</time></trkpt>
<trkpt lat="46.8027617130" lon="7.0819428284"><ele></ele><time>2014-4-27T11:36:41Z</time></trkpt>
<trkpt lat="46.8027367350" lon="7.0819144975"><ele></ele><time>2014-4-27T11:36:44Z</time></trkpt>
<trkpt lat="46.8027111702" lon="7.0818870887"><ele></ele><time>2014-4-27T11:36:47Z</time></trkpt>
<trkpt lat="46.8025176320" lon="7.0818170998"><ele></ele><time>2014-4-27T11:36:50Z</time></trkpt>
<trkpt lat="46.8022684380" lon="7.0817018487"><ele></ele><time>2014-4-27T11:36:53Z</time></trkpt>
<trkpt lat="46.8020469043" lon="7.0815891121"><ele></ele><time>2014-4-27T11:36:56Z</time></trkpt>
<trkpt lat="46.8019246124" lon="7.0815337915"><ele></ele><time>2014-4-27T11:36:59Z</time></trkpt>
<trkpt lat="46.8017407134" lon="7.0814821590"><ele></ele><time>2014-4-27T11:37:2Z</time></trkpt>
<trkpt lat="46.8015471753" lon="7.0814234857"><ele></ele><time>2014-4-27T11:37:5Z</time></trkpt>
<trkpt lat="46.8015035894" lon="7.0813939814"><ele></ele><time>2014-4-27T11:37:8Z</time></trkpt>
<trkpt lat="46.8012923654" lon="7.0812789816"><ele></ele><time>2014-4-27T11:37:11Z</time></trkpt>
<trkpt lat="46.8013057765" lon="7.0812468790"><ele></ele><time>2014-4-27T11:37:14Z</time></trkpt>
<trkpt lat="46.8013365380" lon="7.0812099986"><ele></ele><time>2014-4-27T11:37:17Z</time></trkpt>
<trkpt lat="46.8013599236" lon="7.0812188834"><ele></ele><time>2014-4-27T11:37:20Z</time></trkpt>
<trkpt lat="46.8014470953" lon="7.0812392514"><ele></ele><time>2014-4-27T11:37:23Z</time></trkpt>
<trkpt lat="46.8015918508" lon="7.0812322106"><ele></ele><time>2014-4-27T11:37:26Z</time></trkpt>
<trkpt lat="46.8017387856" lon="7.0812177937"><ele></ele><time>2014-4-27T11:37:29Z</time></trkpt>
<trkpt lat="46.8018463254" lon="7.0812709350"><ele></ele><time>2014-4-27T11:37:32Z</time></trkpt>
<trkpt lat="46.8018651847" lon="7.0812830888"><ele></ele><time>2014-4-27T11:37:35Z</time></trkpt>
<trkpt lat="46.8018744048" lon="7.0813024510"><ele></ele><time>2014-4-27T11:37:38Z</time></trkpt>
<trkpt lat="46.8019922543" lon="7.0813947357"><ele></ele><time>2014-4-27T11:37:41Z</time></trkpt>
<trkpt lat="46.8021316454" lon="7.0813925564"><ele></ele><time>2014-4-27T11:37:44Z</time></trkpt>
<trkpt lat="46.8024012912" lon="7.0813871920"><ele></ele><time>2014-4-27T11:37:47Z</time></trkpt>
<trkpt lat="46.8026131019" lon="7.0813027862"><ele></ele><time>2014-4-27T11:37:50Z</time></trkpt>
<trkpt lat="46.8028356414" lon="7.0813617110"><ele></ele><time>2014-4-27T11:37:53Z</time></trkpt>
<trkpt lat="46.8029471207" lon="7.0814147685"><ele></ele><time>2014-4-27T11:37:56Z</time></trkpt>
<trkpt lat="46.8029616214" lon="7.0814177860"><ele></ele><time>2014-4-27T11:37:59Z</time></trkpt>
<trkpt lat="46.8030796386" lon="7.0813708473"><ele></ele><time>2014-4-27T11:38:2Z</time></trkpt>
<trkpt lat="46.8031344563" lon="7.0813678298"><ele></ele><time>2014-4-27T11:38:5Z</time></trkpt>
<trkpt lat="46.8031914532" lon="7.0812651515"><ele></ele><time>2014-4-27T11:38:8Z</time></trkpt>
<trkpt lat="46.8032996636" lon="7.0811659098"><ele></ele><time>2014-4-27T11:38:11Z</time></trkpt>
<trkpt lat="46.8033218756" lon="7.0811594557"><ele></ele><time>2014-4-27T11:38:14Z</time></trkpt>
<trkpt lat="46.8033968937" lon="7.0810100064"><ele></ele><time>2014-4-27T11:38:17Z</time></trkpt>
<trkpt lat="46.8034301698" lon="7.0809578709"><ele></ele><time>2014-4-27T11:38:20Z</time></trkpt>
<trkpt lat="46.8034383841" lon="7.0808872115"><ele></ele><time>2014-4-27T11:38:23Z</time></trkpt>
<trkpt lat="46.8034666311" lon="7.0806952659"><ele></ele><time>2014-4-27T11:38:26Z</time></trkpt>
<trkpt lat="46.8034768570" lon="7.0806207508"><ele></ele><time>2014-4-27T11:38:29Z</time></trkpt>
<trkpt lat="46.8035012484" lon="7.0805991255"><ele></ele><time>2014-4-27T11:38:32Z</time></trkpt>
<trkpt lat="46.8034980632" lon="7.0805782545"><ele></ele><time>2014-4-27T11:38:35Z</time></trkpt>
<trkpt lat="46.8034980632" lon="7.0805782545"><ele></ele><time>2014-4-27T11:38:38Z</time></trkpt>
<trkpt lat="46.8034958001" lon="7.0805683639"><ele></ele><time>2014-4-27T11:38:41Z</time></trkpt>
<trkpt lat="46.8034958001" lon="7.0805683639"><ele></ele><time>2014-4-27T11:38:44Z</time></trkpt>
<trkpt lat="46.8034969736" lon="7.0805267058"><ele></ele><time>2014-4-27T11:38:47Z</time></trkpt>
<trkpt lat="46.8036096264" lon="7.0802988019"><ele></ele><time>2014-4-27T11:38:50Z</time></trkpt>
<trkpt lat="46.8036589958" lon="7.0801228657"><ele></ele><time>2014-4-27T11:38:53Z</time></trkpt>
<trkpt lat="46.8036075309" lon="7.0798610151"><ele></ele><time>2014-4-27T11:38:56Z</time></trkpt>
<trkpt lat="46.8035165872" lon="7.0792869385"><ele></ele><time>2014-4-27T11:38:59Z</time></trkpt>
<trkpt lat="46.8034287449" lon="7.0789264329"><ele></ele><time>2014-4-27T11:39:2Z</time></trkpt>
<trkpt lat="46.8034179322" lon="7.0788936596"><ele></ele><time>2014-4-27T11:39:5Z</time></trkpt>
<trkpt lat="46.8034035992" lon="7.0787006244"><ele></ele><time>2014-4-27T11:39:8Z</time></trkpt>
<trkpt lat="46.8033754360" lon="7.0782782603"><ele></ele><time>2014-4-27T11:39:11Z</time></trkpt>
<trkpt lat="46.8033605162" lon="7.0781373605"><ele></ele><time>2014-4-27T11:39:14Z</time></trkpt>
<trkpt lat="46.8032911979" lon="7.0777156670"><ele></ele><time>2014-4-27T11:39:17Z</time></trkpt>
<trkpt lat="46.8031528965" lon="7.0772565063"><ele></ele><time>2014-4-27T11:39:20Z</time></trkpt>
<trkpt lat="46.8030605279" lon="7.0769231580"><ele></ele><time>2014-4-27T11:39:23Z</time></trkpt>
<trkpt lat="46.8029564247" lon="7.0764104370"><ele></ele><time>2014-4-27T11:39:26Z</time></trkpt>
<trkpt lat="46.8026927300" lon="7.0755484421"><ele></ele><time>2014-4-27T11:39:29Z</time></trkpt>
<trkpt lat="46.8024165463" lon="7.0748978388"><ele></ele><time>2014-4-27T11:39:32Z</time></trkpt>
<trkpt lat="46.8021261133" lon="7.0745079126"><ele></ele><time>2014-4-27T11:39:35Z</time></trkpt>
<trkpt lat="46.8018893246" lon="7.0741520170"><ele></ele><time>2014-4-27T11:39:38Z</time></trkpt>
<trkpt lat="46.8017175794" lon="7.0738548785"><ele></ele><time>2014-4-27T11:39:41Z</time></trkpt>
<trkpt lat="46.8015101273" lon="7.0733904373"><ele></ele><time>2014-4-27T11:39:44Z</time></trkpt>
<trkpt lat="46.8013119791" lon="7.0729450230"><ele></ele><time>2014-4-27T11:39:47Z</time></trkpt>
<trkpt lat="46.8012129888" lon="7.0725542586"><ele></ele><time>2014-4-27T11:39:50Z</time></trkpt>
<trkpt lat="46.8011243921" lon="7.0722938329"><ele></ele><time>2014-4-27T11:39:53Z</time></trkpt>
<trkpt lat="46.8009611126" lon="7.0720939245"><ele></ele><time>2014-4-27T11:39:56Z</time></trkpt>
<trkpt lat="46.8009316083" lon="7.0720889792"><ele></ele><time>2014-4-27T11:39:59Z</time></trkpt>
<trkpt lat="46.8008776288" lon="7.0721409470"><ele></ele><time>2014-4-27T11:40:2Z</time></trkpt>
<trkpt lat="46.8008268345" lon="7.0721986983"><ele></ele><time>2014-4-27T11:40:5Z</time></trkpt>
<trkpt lat="46.8007133435" lon="7.0722284541"><ele></ele><time>2014-4-27T11:40:8Z</time></trkpt>
<trkpt lat="46.8005778082" lon="7.0722041465"><ele></ele><time>2014-4-27T11:40:11Z</time></trkpt>
<trkpt lat="46.8004240841" lon="7.0722560305"><ele></ele><time>2014-4-27T11:40:14Z</time></trkpt>
<trkpt lat="46.8003766425" lon="7.0722831041"><ele></ele><time>2014-4-27T11:40:17Z</time></trkpt>
<trkpt lat="46.8003528379" lon="7.0723860338"><ele></ele><time>2014-4-27T11:40:20Z</time></trkpt>
<trkpt lat="46.8002932426" lon="7.0724369120"><ele></ele><time>2014-4-27T11:40:23Z</time></trkpt>
<trkpt lat="46.8001776561" lon="7.0725267660"><ele></ele><time>2014-4-27T11:40:26Z</time></trkpt>
<trkpt lat="46.7999584693" lon="7.0727741998"><ele></ele><time>2014-4-27T11:40:29Z</time></trkpt>
<trkpt lat="46.7999583017" lon="7.0728664845"><ele></ele><time>2014-4-27T11:40:32Z</time></trkpt>
<trkpt lat="46.7999581341" lon="7.0728992578"><ele></ele><time>2014-4-27T11:40:35Z</time></trkpt>
<trkpt lat="46.8000330683" lon="7.0731626172"><ele></ele><time>2014-4-27T11:40:38Z</time></trkpt>
<trkpt lat="46.8001039792" lon="7.0735556446"><ele></ele><time>2014-4-27T11:40:41Z</time></trkpt>
<trkpt lat="46.8001432903" lon="7.0739254542"><ele></ele><time>2014-4-27T11:40:44Z</time></trkpt>
<trkpt lat="46.8001402728" lon="7.0739508513"><ele></ele><time>2014-4-27T11:40:47Z</time></trkpt>
<trkpt lat="46.8001916539" lon="7.0743416157"><ele></ele><time>2014-4-27T11:40:50Z</time></trkpt>
<trkpt lat="46.8001898099" lon="7.0744421147"><ele></ele><time>2014-4-27T11:40:53Z</time></trkpt>
<trkpt lat="46.8002000358" lon="7.0746307913"><ele></ele><time>2014-4-27T11:40:56Z</time></trkpt>
<trkpt lat="46.8001697771" lon="7.0747659914"><ele></ele><time>2014-4-27T11:40:59Z</time></trkpt>
<trkpt lat="46.7998841219" lon="7.0749626309"><ele></ele><time>2014-4-27T11:41:2Z</time></trkpt>
<trkpt lat="46.7995317467" lon="7.0750772953"><ele></ele><time>2014-4-27T11:41:5Z</time></trkpt>
<trkpt lat="46.7993535474" lon="7.0750891976"><ele></ele><time>2014-4-27T11:41:8Z</time></trkpt>
<trkpt lat="46.7992815468" lon="7.0752950571"><ele></ele><time>2014-4-27T11:41:11Z</time></trkpt>
<trkpt lat="46.7992819659" lon="7.0753293391"><ele></ele><time>2014-4-27T11:41:14Z</time></trkpt>
<trkpt lat="46.7993007414" lon="7.0753744338"><ele></ele><time>2014-4-27T11:41:17Z</time></trkpt>
<trkpt lat="46.7992498633" lon="7.0755894296"><ele></ele><time>2014-4-27T11:41:20Z</time></trkpt>
<trkpt lat="46.7992266454" lon="7.0756543055"><ele></ele><time>2014-4-27T11:41:23Z</time></trkpt>
<trkpt lat="46.7992172576" lon="7.0758360252"><ele></ele><time>2014-4-27T11:41:26Z</time></trkpt>
<trkpt lat="46.7992077023" lon="7.0759107079"><ele></ele><time>2014-4-27T11:41:29Z</time></trkpt>
<trkpt lat="46.7991772760" lon="7.0760016516"><ele></ele><time>2014-4-27T11:41:32Z</time></trkpt>
<trkpt lat="46.7992193531" lon="7.0763253607"><ele></ele><time>2014-4-27T11:41:35Z</time></trkpt>
<trkpt lat="46.7991687264" lon="7.0765245985"><ele></ele><time>2014-4-27T11:41:38Z</time></trkpt>
<trkpt lat="46.7991696484" lon="7.0765703637"><ele></ele><time>2014-4-27T11:41:41Z</time></trkpt>
<trkpt lat="46.7991129868" lon="7.0766641572"><ele></ele><time>2014-4-27T11:41:44Z</time></trkpt>
<trkpt lat="46.7990265694" lon="7.0768262632"><ele></ele><time>2014-4-27T11:41:47Z</time></trkpt>
<trkpt lat="46.7989163473" lon="7.0771176182"><ele></ele><time>2014-4-27T11:41:50Z</time></trkpt>
<trkpt lat="46.7988803051" lon="7.0773226395"><ele></ele><time>2014-4-27T11:41:53Z</time></trkpt>
<trkpt lat="46.7988313548" lon="7.0775008388"><ele></ele><time>2014-4-27T11:41:56Z</time></trkpt>
<trkpt lat="46.7987942230" lon="7.0775530580"><ele></ele><time>2014-4-27T11:41:59Z</time></trkpt>
<trkpt lat="46.7987652216" lon="7.0775941294"><ele></ele><time>2014-4-27T11:42:2Z</time></trkpt>
<trkpt lat="46.7987420037" lon="7.0777053572"><ele></ele><time>2014-4-27T11:42:5Z</time></trkpt>
<trkpt lat="46.7986232322" lon="7.0781480055"><ele></ele><time>2014-4-27T11:42:8Z</time></trkpt>
<trkpt lat="46.7985912971" lon="7.0781910047"><ele></ele><time>2014-4-27T11:42:11Z</time></trkpt>
<trkpt lat="46.7984346393" lon="7.0786298811"><ele></ele><time>2014-4-27T11:42:14Z</time></trkpt>
<trkpt lat="46.7985011917" lon="7.0790148620"><ele></ele><time>2014-4-27T11:42:17Z</time></trkpt>
<trkpt lat="46.7985067237" lon="7.0793292671"><ele></ele><time>2014-4-27T11:42:20Z</time></trkpt>
<trkpt lat="46.7985061370" lon="7.0793561731"><ele></ele><time>2014-4-27T11:42:23Z</time></trkpt>
<trkpt lat="46.7984854337" lon="7.0794580132"><ele></ele><time>2014-4-27T11:42:26Z</time></trkpt>
<trkpt lat="46.7984094098" lon="7.0797099732"><ele></ele><time>2014-4-27T11:42:29Z</time></trkpt>
<trkpt lat="46.7983876169" lon="7.0797466859"><ele></ele><time>2014-4-27T11:42:32Z</time></trkpt>
<trkpt lat="46.7983437795" lon="7.0798360370"><ele></ele><time>2014-4-27T11:42:35Z</time></trkpt>
<trkpt lat="46.7983026244" lon="7.0799265616"><ele></ele><time>2014-4-27T11:42:38Z</time></trkpt>
<trkpt lat="46.7981816735" lon="7.0800498594"><ele></ele><time>2014-4-27T11:42:41Z</time></trkpt>
<trkpt lat="46.7980739661" lon="7.0801840536"><ele></ele><time>2014-4-27T11:42:44Z</time></trkpt>
<trkpt lat="46.7979638278" lon="7.0802897494"><ele></ele><time>2014-4-27T11:42:47Z</time></trkpt>
<trkpt lat="46.7979441304" lon="7.0803184155"><ele></ele><time>2014-4-27T11:42:50Z</time></trkpt>
<trkpt lat="46.7979170568" lon="7.0803764183"><ele></ele><time>2014-4-27T11:42:53Z</time></trkpt>
<trkpt lat="46.7978175636" lon="7.0804015640"><ele></ele><time>2014-4-27T11:42:56Z</time></trkpt>
<trkpt lat="46.7973878235" lon="7.0803127997"><ele></ele><time>2014-4-27T11:42:59Z</time></trkpt>
<trkpt lat="46.7973060161" lon="7.0805494208"><ele></ele><time>2014-4-27T11:43:2Z</time></trkpt>
<trkpt lat="46.7971033417" lon="7.0806341618"><ele></ele><time>2014-4-27T11:43:5Z</time></trkpt>
<trkpt lat="46.7968814727" lon="7.0806854591"><ele></ele><time>2014-4-27T11:43:8Z</time></trkpt>
<trkpt lat="46.7965638824" lon="7.0807195734"><ele></ele><time>2014-4-27T11:43:11Z</time></trkpt>
<trkpt lat="46.7962300312" lon="7.0807401091"><ele></ele><time>2014-4-27T11:43:14Z</time></trkpt>
<trkpt lat="46.7958506662" lon="7.0807068329"><ele></ele><time>2014-4-27T11:43:17Z</time></trkpt>
<trkpt lat="46.7955286335" lon="7.0803802740"><ele></ele><time>2014-4-27T11:43:20Z</time></trkpt>
<trkpt lat="46.7952221911" lon="7.0801941957"><ele></ele><time>2014-4-27T11:43:23Z</time></trkpt>
<trkpt lat="46.7949009966" lon="7.0798998233"><ele></ele><time>2014-4-27T11:43:26Z</time></trkpt>
<trkpt lat="46.7945588473" lon="7.0797665510"><ele></ele><time>2014-4-27T11:43:29Z</time></trkpt>
<trkpt lat="46.7944033630" lon="7.0796453487"><ele></ele><time>2014-4-27T11:43:32Z</time></trkpt>
<trkpt lat="46.7941997666" lon="7.0794633776"><ele></ele><time>2014-4-27T11:43:35Z</time></trkpt>
<trkpt lat="46.7941612937" lon="7.0793846715"><ele></ele><time>2014-4-27T11:43:38Z</time></trkpt>
<trkpt lat="46.7941633053" lon="7.0790297817"><ele></ele><time>2014-4-27T11:43:41Z</time></trkpt>
<trkpt lat="46.7942216434" lon="7.0786164701"><ele></ele><time>2014-4-27T11:43:44Z</time></trkpt>
<trkpt lat="46.7941414285" lon="7.0783671923"><ele></ele><time>2014-4-27T11:43:47Z</time></trkpt>
<trkpt lat="46.7941264249" lon="7.0783359278"><ele></ele><time>2014-4-27T11:43:50Z</time></trkpt>
<trkpt lat="46.7940338887" lon="7.0784268714"><ele></ele><time>2014-4-27T11:43:53Z</time></trkpt>
<trkpt lat="46.7939721979" lon="7.0784868021"><ele></ele><time>2014-4-27T11:43:56Z</time></trkpt>
<trkpt lat="46.7939596251" lon="7.0785151329"><ele></ele><time>2014-4-27T11:43:59Z</time></trkpt>
<trkpt lat="46.7939640675" lon="7.0785603952"><ele></ele><time>2014-4-27T11:44:2Z</time></trkpt>
<trkpt lat="46.7939562723" lon="7.0785778295"><ele></ele><time>2014-4-27T11:44:5Z</time></trkpt>
<trkpt lat="46.7939545959" lon="7.0785897318"><ele></ele><time>2014-4-27T11:44:8Z</time></trkpt>
<trkpt lat="46.7937681824" lon="7.0787753910"><ele></ele><time>2014-4-27T11:44:11Z</time></trkpt>
<trkpt lat="46.7936143745" lon="7.0789130218"><ele></ele><time>2014-4-27T11:44:14Z</time></trkpt>
<trkpt lat="46.7935379315" lon="7.0789618045"><ele></ele><time>2014-4-27T11:44:17Z</time></trkpt>
<trkpt lat="46.7931760848" lon="7.0792400837"><ele></ele><time>2014-4-27T11:44:20Z</time></trkpt>
<trkpt lat="46.7929262202" lon="7.0795834064"><ele></ele><time>2014-4-27T11:44:23Z</time></trkpt>
<trkpt lat="46.7929042596" lon="7.0797861647"><ele></ele><time>2014-4-27T11:44:26Z</time></trkpt>
<trkpt lat="46.7928967997" lon="7.0799995679"><ele></ele><time>2014-4-27T11:44:29Z</time></trkpt>
<trkpt lat="46.7928495258" lon="7.0801731572"><ele></ele><time>2014-4-27T11:44:32Z</time></trkpt>
<trkpt lat="46.7926923651" lon="7.0803503506"><ele></ele><time>2014-4-27T11:44:35Z</time></trkpt>
<trkpt lat="46.7925286666" lon="7.0806180686"><ele></ele><time>2014-4-27T11:44:38Z</time></trkpt>
<trkpt lat="46.7922865134" lon="7.0807404444"><ele></ele><time>2014-4-27T11:44:41Z</time></trkpt>
<trkpt lat="46.7919936497" lon="7.0808581263"><ele></ele><time>2014-4-27T11:44:44Z</time></trkpt>
<trkpt lat="46.7914712895" lon="7.0810260996"><ele></ele><time>2014-4-27T11:44:47Z</time></trkpt>
<trkpt lat="46.7910432257" lon="7.0811286941"><ele></ele><time>2014-4-27T11:44:50Z</time></trkpt>
<trkpt lat="46.7906325962" lon="7.0812379103"><ele></ele><time>2014-4-27T11:44:53Z</time></trkpt>
<trkpt lat="46.7906006612" lon="7.0812660735"><ele></ele><time>2014-4-27T11:44:56Z</time></trkpt>
<trkpt lat="46.7903734278" lon="7.0815241523"><ele></ele><time>2014-4-27T11:44:59Z</time></trkpt>
<trkpt lat="46.7902316898" lon="7.0816280879"><ele></ele><time>2014-4-27T11:45:2Z</time></trkpt>
<trkpt lat="46.7901195399" lon="7.0815350488"><ele></ele><time>2014-4-27T11:45:5Z</time></trkpt>
<trkpt lat="46.7897899635" lon="7.0806349162"><ele></ele><time>2014-4-27T11:45:8Z</time></trkpt>
<trkpt lat="46.7895118520" lon="7.0795326121"><ele></ele><time>2014-4-27T11:45:11Z</time></trkpt>
<trkpt lat="46.7891542800" lon="7.0782656875"><ele></ele><time>2014-4-27T11:45:14Z</time></trkpt>
<trkpt lat="46.7887899186" lon="7.0774831530"><ele></ele><time>2014-4-27T11:45:17Z</time></trkpt>
<trkpt lat="46.7882428318" lon="7.0766800828"><ele></ele><time>2014-4-27T11:45:20Z</time></trkpt>
<trkpt lat="46.7876556795" lon="7.0760815311"><ele></ele><time>2014-4-27T11:45:23Z</time></trkpt>
<trkpt lat="46.7873339821" lon="7.0756786969"><ele></ele><time>2014-4-27T11:45:26Z</time></trkpt>
<trkpt lat="46.7872673459" lon="7.0755358692"><ele></ele><time>2014-4-27T11:45:29Z</time></trkpt>
<trkpt lat="46.7870927509" lon="7.0755023416"><ele></ele><time>2014-4-27T11:45:32Z</time></trkpt>
<trkpt lat="46.7870590556" lon="7.0756764337"><ele></ele><time>2014-4-27T11:45:35Z</time></trkpt>
<trkpt lat="46.7869449779" lon="7.0768445358"><ele></ele><time>2014-4-27T11:45:38Z</time></trkpt>
<trkpt lat="46.7866074387" lon="7.0775393955"><ele></ele><time>2014-4-27T11:45:41Z</time></trkpt>
<trkpt lat="46.7864305805" lon="7.0777746756"><ele></ele><time>2014-4-27T11:45:44Z</time></trkpt>
<trkpt lat="46.7861932050" lon="7.0779798646"><ele></ele><time>2014-4-27T11:45:47Z</time></trkpt>
<trkpt lat="46.7860258184" lon="7.0782423019"><ele></ele><time>2014-4-27T11:45:50Z</time></trkpt>
<trkpt lat="46.7854817491" lon="7.0790418517"><ele></ele><time>2014-4-27T11:45:53Z</time></trkpt>
<trkpt lat="46.7851360794" lon="7.0795187820"><ele></ele><time>2014-4-27T11:45:56Z</time></trkpt>
<trkpt lat="46.7848931719" lon="7.0803428069"><ele></ele><time>2014-4-27T11:45:59Z</time></trkpt>
<trkpt lat="46.7848961055" lon="7.0805129595"><ele></ele><time>2014-4-27T11:46:2Z</time></trkpt>
<trkpt lat="46.7850893922" lon="7.0827945974"><ele></ele><time>2014-4-27T11:46:5Z</time></trkpt>
<trkpt lat="46.7850209959" lon="7.0841895975"><ele></ele><time>2014-4-27T11:46:8Z</time></trkpt>
<trkpt lat="46.7848438863" lon="7.0847647637"><ele></ele><time>2014-4-27T11:46:11Z</time></trkpt>
<trkpt lat="46.7844396271" lon="7.0854797401"><ele></ele><time>2014-4-27T11:46:14Z</time></trkpt>
<trkpt lat="46.7836819030" lon="7.0859902818"><ele></ele><time>2014-4-27T11:46:17Z</time></trkpt>
<trkpt lat="46.7831948306" lon="7.0861300081"><ele></ele><time>2014-4-27T11:46:20Z</time></trkpt>
<trkpt lat="46.7828818504" lon="7.0859476179"><ele></ele><time>2014-4-27T11:46:23Z</time></trkpt>
<trkpt lat="46.7828080058" lon="7.0858094841"><ele></ele><time>2014-4-27T11:46:26Z</time></trkpt>
<trkpt lat="46.7828076705" lon="7.0858130883"><ele></ele><time>2014-4-27T11:46:29Z</time></trkpt>
<trkpt lat="46.7828171421" lon="7.0858218055"><ele></ele><time>2014-4-27T11:46:32Z</time></trkpt>
<trkpt lat="46.7828167230" lon="7.0858245715"><ele></ele><time>2014-4-27T11:46:35Z</time></trkpt>
<trkpt lat="46.7828105204" lon="7.0858280919"><ele></ele><time>2014-4-27T11:46:38Z</time></trkpt>
<trkpt lat="46.7828130350" lon="7.0858254097"><ele></ele><time>2014-4-27T11:46:41Z</time></trkpt>
<trkpt lat="46.7828065809" lon="7.0858102385"><ele></ele><time>2014-4-27T11:46:44Z</time></trkpt>
<trkpt lat="46.7827992886" lon="7.0858019404"><ele></ele><time>2014-4-27T11:46:47Z</time></trkpt>
<trkpt lat="46.7827686947" lon="7.0857301913"><ele></ele><time>2014-4-27T11:46:50Z</time></trkpt>
<trkpt lat="46.7826625798" lon="7.0854210667"><ele></ele><time>2014-4-27T11:46:53Z</time></trkpt>
<trkpt lat="46.7824356817" lon="7.0848070923"><ele></ele><time>2014-4-27T11:46:56Z</time></trkpt>
<trkpt lat="46.7821672093" lon="7.0841035154"><ele></ele><time>2014-4-27T11:46:59Z</time></trkpt>
<trkpt lat="46.7819048557" lon="7.0834303647"><ele></ele><time>2014-4-27T11:47:2Z</time></trkpt>
<trkpt lat="46.7816666421" lon="7.0828167256"><ele></ele><time>2014-4-27T11:47:5Z</time></trkpt>
<trkpt lat="46.7813855130" lon="7.0821289066"><ele></ele><time>2014-4-27T11:47:8Z</time></trkpt>
<trkpt lat="46.7811944894" lon="7.0816441812"><ele></ele><time>2014-4-27T11:47:11Z</time></trkpt>
<trkpt lat="46.7809417751" lon="7.0810145326"><ele></ele><time>2014-4-27T11:47:14Z</time></trkpt>
<trkpt lat="46.7806945089" lon="7.0803800225"><ele></ele><time>2014-4-27T11:47:17Z</time></trkpt>
<trkpt lat="46.7806176469" lon="7.0799126476"><ele></ele><time>2014-4-27T11:47:20Z</time></trkpt>
<trkpt lat="46.7806202453" lon="7.0793064684"><ele></ele><time>2014-4-27T11:47:23Z</time></trkpt>
<trkpt lat="46.7804857157" lon="7.0786026400"><ele></ele><time>2014-4-27T11:47:26Z</time></trkpt>
<trkpt lat="46.7803599872" lon="7.0779651124"><ele></ele><time>2014-4-27T11:47:29Z</time></trkpt>
<trkpt lat="46.7802560516" lon="7.0773827378"><ele></ele><time>2014-4-27T11:47:32Z</time></trkpt>
<trkpt lat="46.7801359389" lon="7.0766768139"><ele></ele><time>2014-4-27T11:47:35Z</time></trkpt>
<trkpt lat="46.7800346855" lon="7.0760128833"><ele></ele><time>2014-4-27T11:47:38Z</time></trkpt>
<trkpt lat="46.7799288221" lon="7.0753740147"><ele></ele><time>2014-4-27T11:47:41Z</time></trkpt>
<trkpt lat="46.7798200250" lon="7.0747700986"><ele></ele><time>2014-4-27T11:47:44Z</time></trkpt>
<trkpt lat="46.7797569092" lon="7.0744884666"><ele></ele><time>2014-4-27T11:47:47Z</time></trkpt>
<trkpt lat="46.7796650436" lon="7.0744944178"><ele></ele><time>2014-4-27T11:47:50Z</time></trkpt>
<trkpt lat="46.7793900333" lon="7.0746400952"><ele></ele><time>2014-4-27T11:47:53Z</time></trkpt>
<trkpt lat="46.7789759673" lon="7.0748814102"><ele></ele><time>2014-4-27T11:47:56Z</time></trkpt>
<trkpt lat="46.7786437925" lon="7.0750700030"><ele></ele><time>2014-4-27T11:47:59Z</time></trkpt>
<trkpt lat="46.7780568078" lon="7.0754461829"><ele></ele><time>2014-4-27T11:48:2Z</time></trkpt>
<trkpt lat="46.7780133896" lon="7.0754792076"><ele></ele><time>2014-4-27T11:48:5Z</time></trkpt>
<trkpt lat="46.7779227812" lon="7.0757820457"><ele></ele><time>2014-4-27T11:48:8Z</time></trkpt>
<trkpt lat="46.7779249605" lon="7.0758669544"><ele></ele><time>2014-4-27T11:48:11Z</time></trkpt>
<trkpt lat="46.7780501023" lon="7.0765634067"><ele></ele><time>2014-4-27T11:48:14Z</time></trkpt>
<trkpt lat="46.7780680396" lon="7.0766299590"><ele></ele><time>2014-4-27T11:48:17Z</time></trkpt>
<trkpt lat="46.7780948617" lon="7.0767652430"><ele></ele><time>2014-4-27T11:48:20Z</time></trkpt>
<trkpt lat="46.7780480906" lon="7.0774890203"><ele></ele><time>2014-4-27T11:48:23Z</time></trkpt>
<trkpt lat="46.7780263815" lon="7.0779573172"><ele></ele><time>2014-4-27T11:48:26Z</time></trkpt>
<trkpt lat="46.7780207656" lon="7.0780108776"><ele></ele><time>2014-4-27T11:48:29Z</time></trkpt>
<trkpt lat="46.7779917642" lon="7.0782785118"><ele></ele><time>2014-4-27T11:48:32Z</time></trkpt>
<trkpt lat="46.7779905070" lon="7.0784388576"><ele></ele><time>2014-4-27T11:48:35Z</time></trkpt>
<trkpt lat="46.7780101206" lon="7.0787137840"><ele></ele><time>2014-4-27T11:48:38Z</time></trkpt>
<trkpt lat="46.7780388705" lon="7.0788988564"><ele></ele><time>2014-4-27T11:48:41Z</time></trkpt>
<trkpt lat="46.7781075183" lon="7.0791753754"><ele></ele><time>2014-4-27T11:48:44Z</time></trkpt>
<trkpt lat="46.7783758231" lon="7.0799568202"><ele></ele><time>2014-4-27T11:48:47Z</time></trkpt>
<trkpt lat="46.7784356698" lon="7.0802134741"><ele></ele><time>2014-4-27T11:48:50Z</time></trkpt>
<trkpt lat="46.7785605602" lon="7.0805529412"><ele></ele><time>2014-4-27T11:48:53Z</time></trkpt>
<trkpt lat="46.7786318902" lon="7.0808048174"><ele></ele><time>2014-4-27T11:48:56Z</time></trkpt>
<trkpt lat="46.7787455488" lon="7.0811131876"><ele></ele><time>2014-4-27T11:48:59Z</time></trkpt>
<trkpt lat="46.7788847722" lon="7.0813166164"><ele></ele><time>2014-4-27T11:49:2Z</time></trkpt>
<trkpt lat="46.7790882848" lon="7.0816973224"><ele></ele><time>2014-4-27T11:49:5Z</time></trkpt>
<trkpt lat="46.7791470420" lon="7.0821616799"><ele></ele><time>2014-4-27T11:49:8Z</time></trkpt>
<trkpt lat="46.7792515643" lon="7.0824192557"><ele></ele><time>2014-4-27T11:49:11Z</time></trkpt>
<trkpt lat="46.7794850841" lon="7.0830184780"><ele></ele><time>2014-4-27T11:49:14Z</time></trkpt>
<trkpt lat="46.7797755171" lon="7.0834725257"><ele></ele><time>2014-4-27T11:49:17Z</time></trkpt>
<trkpt lat="46.7798881698" lon="7.0838827360"><ele></ele><time>2014-4-27T11:49:20Z</time></trkpt>
<trkpt lat="46.7798959650" lon="7.0840953011"><ele></ele><time>2014-4-27T11:49:23Z</time></trkpt>
<trkpt lat="46.7798931152" lon="7.0840932056"><ele></ele><time>2014-4-27T11:49:26Z</time></trkpt>
<trkpt lat="46.7798931152" lon="7.0840932056"><ele></ele><time>2014-4-27T11:49:29Z</time></trkpt>
<trkpt lat="46.7798999045" lon="7.0840906072"><ele></ele><time>2014-4-27T11:49:32Z</time></trkpt>
<trkpt lat="46.7798999045" lon="7.0840906072"><ele></ele><time>2014-4-27T11:49:35Z</time></trkpt>
<trkpt lat="46.7799008265" lon="7.0840895176"><ele></ele><time>2014-4-27T11:49:38Z</time></trkpt>
<trkpt lat="46.7799008265" lon="7.0840895176"><ele></ele><time>2014-4-27T11:49:41Z</time></trkpt>
<trkpt lat="46.7799008265" lon="7.0840895176"><ele></ele><time>2014-4-27T11:49:44Z</time></trkpt>
<trkpt lat="46.7798890080" lon="7.0841197763"><ele></ele><time>2014-4-27T11:49:47Z</time></trkpt>
<trkpt lat="46.7799270619" lon="7.0843404718"><ele></ele><time>2014-4-27T11:49:50Z</time></trkpt>
<trkpt lat="46.7799462564" lon="7.0844393782"><ele></ele><time>2014-4-27T11:49:53Z</time></trkpt>
<trkpt lat="46.7799740843" lon="7.0846335869"><ele></ele><time>2014-4-27T11:49:56Z</time></trkpt>
<trkpt lat="46.7800128926" lon="7.0847687032"><ele></ele><time>2014-4-27T11:49:59Z</time></trkpt>
<trkpt lat="46.7801090330" lon="7.0851113554"><ele></ele><time>2014-4-27T11:50:2Z</time></trkpt>
<trkpt lat="46.7802431434" lon="7.0856064744"><ele></ele><time>2014-4-27T11:50:5Z</time></trkpt>
<trkpt lat="46.7804066744" lon="7.0859104022"><ele></ele><time>2014-4-27T11:50:8Z</time></trkpt>
<trkpt lat="46.7807068303" lon="7.0865377039"><ele></ele><time>2014-4-27T11:50:11Z</time></trkpt>
<trkpt lat="46.7808261886" lon="7.0867415518"><ele></ele><time>2014-4-27T11:50:14Z</time></trkpt>
<trkpt lat="46.7808319721" lon="7.0867369417"><ele></ele><time>2014-4-27T11:50:17Z</time></trkpt>
<trkpt lat="46.7808319721" lon="7.0867369417"><ele></ele><time>2014-4-27T11:50:20Z</time></trkpt>
<trkpt lat="46.7808344867" lon="7.0867330022"><ele></ele><time>2014-4-27T11:50:23Z</time></trkpt>
<trkpt lat="46.7808482330" lon="7.0867593214"><ele></ele><time>2014-4-27T11:50:26Z</time></trkpt>
<trkpt lat="46.7808529269" lon="7.0867845509"><ele></ele><time>2014-4-27T11:50:29Z</time></trkpt>
<trkpt lat="46.7806716263" lon="7.0868916716"><ele></ele><time>2014-4-27T11:50:32Z</time></trkpt>
<trkpt lat="46.7805468198" lon="7.0869962778"><ele></ele><time>2014-4-27T11:50:35Z</time></trkpt>
<trkpt lat="46.7804987077" lon="7.0870871376"><ele></ele><time>2014-4-27T11:50:38Z</time></trkpt>
<trkpt lat="46.7803515214" lon="7.0872572903"><ele></ele><time>2014-4-27T11:50:41Z</time></trkpt>
<trkpt lat="46.7800051812" lon="7.0875649061"><ele></ele><time>2014-4-27T11:50:44Z</time></trkpt>
<trkpt lat="46.7797372118" lon="7.0878148545"><ele></ele><time>2014-4-27T11:50:47Z</time></trkpt>
<trkpt lat="46.7796313483" lon="7.0878876094"><ele></ele><time>2014-4-27T11:50:50Z</time></trkpt>
<trkpt lat="46.7796258163" lon="7.0879031159"><ele></ele><time>2014-4-27T11:50:53Z</time></trkpt>
<trkpt lat="46.7796039395" lon="7.0879022777"><ele></ele><time>2014-4-27T11:50:56Z</time></trkpt>
<trkpt lat="46.7795455176" lon="7.0878785569"><ele></ele><time>2014-4-27T11:50:59Z</time></trkpt>
<trkpt lat="46.7793637980" lon="7.0878969971"><ele></ele><time>2014-4-27T11:51:2Z</time></trkpt>
<trkpt lat="46.7792890314" lon="7.0879083127"><ele></ele><time>2014-4-27T11:51:5Z</time></trkpt>
<trkpt lat="46.7792052124" lon="7.0879560057"><ele></ele><time>2014-4-27T11:51:8Z</time></trkpt>
<trkpt lat="46.7790835910" lon="7.0880989172"><ele></ele><time>2014-4-27T11:51:11Z</time></trkpt>
<trkpt lat="46.7789911386" lon="7.0881445985"><ele></ele><time>2014-4-27T11:51:14Z</time></trkpt>
<trkpt lat="46.7789758835" lon="7.0881819818"><ele></ele><time>2014-4-27T11:51:17Z</time></trkpt>
<trkpt lat="46.7789011169" lon="7.0883713290"><ele></ele><time>2014-4-27T11:51:20Z</time></trkpt>
<trkpt lat="46.7789011169" lon="7.0883713290"><ele></ele><time>2014-4-27T11:51:23Z</time></trkpt>
<trkpt lat="46.7786327284" lon="7.0885063615"><ele></ele><time>2014-4-27T11:51:26Z</time></trkpt>
<trkpt lat="46.7783407029" lon="7.0886392146"><ele></ele><time>2014-4-27T11:51:29Z</time></trkpt>
<trkpt lat="46.7783407029" lon="7.0886392146"><ele></ele><time>2014-4-27T11:51:32Z</time></trkpt>
<trkpt lat="46.7783311475" lon="7.0886656176"><ele></ele><time>2014-4-27T11:51:35Z</time></trkpt>
<trkpt lat="46.7781474162" lon="7.0888159052"><ele></ele><time>2014-4-27T11:51:38Z</time></trkpt>
<trkpt lat="46.7781160679" lon="7.0888713934"><ele></ele><time>2014-4-27T11:51:41Z</time></trkpt>
<trkpt lat="46.7781222705" lon="7.0889499318"><ele></ele><time>2014-4-27T11:51:44Z</time></trkpt>
<trkpt lat="46.7781053390" lon="7.0890082698"><ele></ele><time>2014-4-27T11:51:47Z</time></trkpt>
<trkpt lat="46.7781547923" lon="7.0888375305"><ele></ele><time>2014-4-27T11:51:50Z</time></trkpt>
<trkpt lat="46.7781857215" lon="7.0887358580"><ele></ele><time>2014-4-27T11:51:53Z</time></trkpt>
<trkpt lat="46.7781997193" lon="7.0886925235"><ele></ele><time>2014-4-27T11:51:56Z</time></trkpt>
<trkpt lat="46.7782443948" lon="7.0885968860"><ele></ele><time>2014-4-27T11:51:59Z</time></trkpt>
<trkpt lat="46.7782951053" lon="7.0885208622"><ele></ele><time>2014-4-27T11:52:2Z</time></trkpt>
<trkpt lat="46.7783298064" lon="7.0884266496"><ele></ele><time>2014-4-27T11:52:5Z</time></trkpt>
<trkpt lat="46.7782834545" lon="7.0883129910"><ele></ele><time>2014-4-27T11:52:8Z</time></trkpt>
<trkpt lat="46.7782657687" lon="7.0882895216"><ele></ele><time>2014-4-27T11:52:11Z</time></trkpt>
<trkpt lat="46.7780855577" lon="7.0881429221"><ele></ele><time>2014-4-27T11:52:14Z</time></trkpt>
<trkpt lat="46.7779040895" lon="7.0880208816"><ele></ele><time>2014-4-27T11:52:17Z</time></trkpt>
<trkpt lat="46.7776667140" lon="7.0880920440"><ele></ele><time>2014-4-27T11:52:20Z</time></trkpt>
<trkpt lat="46.7776329350" lon="7.0881234761"><ele></ele><time>2014-4-27T11:52:23Z</time></trkpt>
<trkpt lat="46.7774589267" lon="7.0882847439"><ele></ele><time>2014-4-27T11:52:26Z</time></trkpt>
<trkpt lat="46.7773989122" lon="7.0883652102"><ele></ele><time>2014-4-27T11:52:29Z</time></trkpt>
<trkpt lat="46.7772829067" lon="7.0884704031"><ele></ele><time>2014-4-27T11:52:32Z</time></trkpt>
<trkpt lat="46.7770062201" lon="7.0886050165"><ele></ele><time>2014-4-27T11:52:35Z</time></trkpt>
<trkpt lat="46.7766177189" lon="7.0889513567"><ele></ele><time>2014-4-27T11:52:38Z</time></trkpt>
<trkpt lat="46.7763150483" lon="7.0893500000"><ele></ele><time>2014-4-27T11:52:41Z</time></trkpt>
<trkpt lat="46.7762414552" lon="7.0894698612"><ele></ele><time>2014-4-27T11:52:44Z</time></trkpt>
<trkpt lat="46.7758907564" lon="7.0899841748"><ele></ele><time>2014-4-27T11:52:47Z</time></trkpt>
<trkpt lat="46.7758791894" lon="7.0900252461"><ele></ele><time>2014-4-27T11:52:50Z</time></trkpt>
<trkpt lat="46.7757894192" lon="7.0902060438"><ele></ele><time>2014-4-27T11:52:53Z</time></trkpt>
<trkpt lat="46.7760400381" lon="7.0907162502"><ele></ele><time>2014-4-27T11:52:56Z</time></trkpt>
<trkpt lat="46.7763669323" lon="7.0908416435"><ele></ele><time>2014-4-27T11:52:59Z</time></trkpt>
<trkpt lat="46.7765617277" lon="7.0909443218"><ele></ele><time>2014-4-27T11:53:2Z</time></trkpt>
<trkpt lat="46.7770358920" lon="7.0911983773"><ele></ele><time>2014-4-27T11:53:5Z</time></trkpt>
<trkpt lat="46.7773709167" lon="7.0915007126"><ele></ele><time>2014-4-27T11:53:8Z</time></trkpt>
<trkpt lat="46.7773728445" lon="7.0916344039"><ele></ele><time>2014-4-27T11:53:11Z</time></trkpt>
<trkpt lat="46.7773669772" lon="7.0917376690"><ele></ele><time>2014-4-27T11:53:14Z</time></trkpt>
<trkpt lat="46.7773545720" lon="7.0918250922"><ele></ele><time>2014-4-27T11:53:17Z</time></trkpt>
<trkpt lat="46.7773877643" lon="7.0918858610"><ele></ele><time>2014-4-27T11:53:20Z</time></trkpt>
<trkpt lat="46.7773947213" lon="7.0919131860"><ele></ele><time>2014-4-27T11:53:23Z</time></trkpt>
<trkpt lat="46.7773947213" lon="7.0919131860"><ele></ele><time>2014-4-27T11:53:26Z</time></trkpt>
<trkpt lat="46.7773947213" lon="7.0919131860"><ele></ele><time>2014-4-27T11:53:29Z</time></trkpt>
<trkpt lat="46.7773254029" lon="7.0919126831"><ele></ele><time>2014-4-27T11:53:32Z</time></trkpt>
<trkpt lat="46.7772552464" lon="7.0919112582"><ele></ele><time>2014-4-27T11:53:35Z</time></trkpt>
<trkpt lat="46.7772487085" lon="7.0919665787"><ele></ele><time>2014-4-27T11:53:38Z</time></trkpt>
<trkpt lat="46.7772487085" lon="7.0919665787"><ele></ele><time>2014-4-27T11:53:41Z</time></trkpt>
<trkpt lat="46.7772150133" lon="7.0921195485"><ele></ele><time>2014-4-27T11:53:44Z</time></trkpt>
<trkpt lat="46.7773187812" lon="7.0924772881"><ele></ele><time>2014-4-27T11:53:47Z</time></trkpt>
<trkpt lat="46.7773610260" lon="7.0928243827"><ele></ele><time>2014-4-27T11:53:50Z</time></trkpt>
<trkpt lat="46.7775165942" lon="7.0930651948"><ele></ele><time>2014-4-27T11:53:53Z</time></trkpt>
<trkpt lat="46.7777805403" lon="7.0934198331"><ele></ele><time>2014-4-27T11:53:56Z</time></trkpt>
<trkpt lat="46.7778664548" lon="7.0935246069"><ele></ele><time>2014-4-27T11:53:59Z</time></trkpt>
<trkpt lat="46.7780580651" lon="7.0937175583"><ele></ele><time>2014-4-27T11:54:2Z</time></trkpt>
<trkpt lat="46.7782539502" lon="7.0939188916"><ele></ele><time>2014-4-27T11:54:5Z</time></trkpt>
<trkpt lat="46.7783307284" lon="7.0940460451"><ele></ele><time>2014-4-27T11:54:8Z</time></trkpt>
<trkpt lat="46.7787720356" lon="7.0947264042"><ele></ele><time>2014-4-27T11:54:11Z</time></trkpt>
<trkpt lat="46.7789840139" lon="7.0950860716"><ele></ele><time>2014-4-27T11:54:14Z</time></trkpt>
<trkpt lat="46.7792902887" lon="7.0954101160"><ele></ele><time>2014-4-27T11:54:17Z</time></trkpt>
<trkpt lat="46.7794073001" lon="7.0956432167"><ele></ele><time>2014-4-27T11:54:20Z</time></trkpt>
<trkpt lat="46.7796421610" lon="7.0961343125"><ele></ele><time>2014-4-27T11:54:23Z</time></trkpt>
<trkpt lat="46.7797617707" lon="7.0965599455"><ele></ele><time>2014-4-27T11:54:26Z</time></trkpt>
<trkpt lat="46.7799743358" lon="7.0970733371"><ele></ele><time>2014-4-27T11:54:29Z</time></trkpt>
<trkpt lat="46.7800475098" lon="7.0972951222"><ele></ele><time>2014-4-27T11:54:32Z</time></trkpt>
<trkpt lat="46.7800549697" lon="7.0974277239"><ele></ele><time>2014-4-27T11:54:35Z</time></trkpt>
<trkpt lat="46.7801044229" lon="7.0974961203"><ele></ele><time>2014-4-27T11:54:38Z</time></trkpt>
<trkpt lat="46.7801071890" lon="7.0974783506"><ele></ele><time>2014-4-27T11:54:41Z</time></trkpt>
<trkpt lat="46.7799230386" lon="7.0974308252"><ele></ele><time>2014-4-27T11:54:44Z</time></trkpt>
<trkpt lat="46.7797595914" lon="7.0974259637"><ele></ele><time>2014-4-27T11:54:47Z</time></trkpt>
<trkpt lat="46.7796077114" lon="7.0972789451"><ele></ele><time>2014-4-27T11:54:50Z</time></trkpt>
<trkpt lat="46.7793951463" lon="7.0968595985"><ele></ele><time>2014-4-27T11:54:53Z</time></trkpt>
<trkpt lat="46.7791698407" lon="7.0962892100"><ele></ele><time>2014-4-27T11:54:56Z</time></trkpt>
<trkpt lat="46.7789621372" lon="7.0962404273"><ele></ele><time>2014-4-27T11:54:59Z</time></trkpt>
<trkpt lat="46.7785429582" lon="7.0965293515"><ele></ele><time>2014-4-27T11:55:2Z</time></trkpt>
<trkpt lat="46.7781551275" lon="7.0968559105"><ele></ele><time>2014-4-27T11:55:5Z</time></trkpt>
<trkpt lat="46.7777203582" lon="7.0972713176"><ele></ele><time>2014-4-27T11:55:8Z</time></trkpt>
<trkpt lat="46.7773049511" lon="7.0976796839"><ele></ele><time>2014-4-27T11:55:11Z</time></trkpt>
<trkpt lat="46.7769579403" lon="7.0980161335"><ele></ele><time>2014-4-27T11:55:14Z</time></trkpt>
<trkpt lat="46.7765962612" lon="7.0983561035"><ele></ele><time>2014-4-27T11:55:17Z</time></trkpt>
<trkpt lat="46.7762383539" lon="7.0986329578"><ele></ele><time>2014-4-27T11:55:20Z</time></trkpt>
<trkpt lat="46.7758737411" lon="7.0988187008"><ele></ele><time>2014-4-27T11:55:23Z</time></trkpt>
<trkpt lat="46.7755152471" lon="7.0989936311"><ele></ele><time>2014-4-27T11:55:26Z</time></trkpt>
<trkpt lat="46.7754497845" lon="7.0989938825"><ele></ele><time>2014-4-27T11:55:29Z</time></trkpt>
<trkpt lat="46.7754958849" lon="7.0990543999"><ele></ele><time>2014-4-27T11:55:32Z</time></trkpt>
<trkpt lat="46.7754968908" lon="7.0989582594"><ele></ele><time>2014-4-27T11:55:35Z</time></trkpt>
<trkpt lat="46.7754688952" lon="7.0989552420"><ele></ele><time>2014-4-27T11:55:38Z</time></trkpt>
<trkpt lat="46.7754342780" lon="7.0990326907"><ele></ele><time>2014-4-27T11:55:41Z</time></trkpt>
<trkpt lat="46.7753410712" lon="7.0992395561"><ele></ele><time>2014-4-27T11:55:44Z</time></trkpt>
<trkpt lat="46.7753025144" lon="7.0995206013"><ele></ele><time>2014-4-27T11:55:47Z</time></trkpt>
<trkpt lat="46.7752380576" lon="7.0998470765"><ele></ele><time>2014-4-27T11:55:50Z</time></trkpt>
<trkpt lat="46.7751868442" lon="7.1001905669"><ele></ele><time>2014-4-27T11:55:53Z</time></trkpt>
<trkpt lat="46.7751572561" lon="7.1005167905"><ele></ele><time>2014-4-27T11:55:56Z</time></trkpt>
<trkpt lat="46.7751368042" lon="7.1008767933"><ele></ele><time>2014-4-27T11:55:59Z</time></trkpt>
<trkpt lat="46.7751176935" lon="7.1012616903"><ele></ele><time>2014-4-27T11:56:2Z</time></trkpt>
<trkpt lat="46.7750928830" lon="7.1017024107"><ele></ele><time>2014-4-27T11:56:5Z</time></trkpt>
<trkpt lat="46.7750740238" lon="7.1021184884"><ele></ele><time>2014-4-27T11:56:8Z</time></trkpt>
<trkpt lat="46.7750102375" lon="7.1026130207"><ele></ele><time>2014-4-27T11:56:11Z</time></trkpt>
<trkpt lat="46.7748223152" lon="7.1030227281"><ele></ele><time>2014-4-27T11:56:14Z</time></trkpt>
<trkpt lat="46.7746327166" lon="7.1033848263"><ele></ele><time>2014-4-27T11:56:17Z</time></trkpt>
<trkpt lat="46.7745620571" lon="7.1036961302"><ele></ele><time>2014-4-27T11:56:20Z</time></trkpt>
<trkpt lat="46.7745266855" lon="7.1040996350"><ele></ele><time>2014-4-27T11:56:23Z</time></trkpt>
<trkpt lat="46.7744594626" lon="7.1045687702"><ele></ele><time>2014-4-27T11:56:26Z</time></trkpt>
<trkpt lat="46.7744174693" lon="7.1049667429"><ele></ele><time>2014-4-27T11:56:29Z</time></trkpt>
<trkpt lat="46.7743302975" lon="7.1054567490"><ele></ele><time>2014-4-27T11:56:32Z</time></trkpt>
<trkpt lat="46.7741613183" lon="7.1054528095"><ele></ele><time>2014-4-27T11:56:35Z</time></trkpt>
<trkpt lat="46.7738777585" lon="7.1055612713"><ele></ele><time>2014-4-27T11:56:38Z</time></trkpt>
<trkpt lat="46.7738017347" lon="7.1057025902"><ele></ele><time>2014-4-27T11:56:41Z</time></trkpt>
<trkpt lat="46.7735831346" lon="7.1066214982"><ele></ele><time>2014-4-27T11:56:44Z</time></trkpt>
<trkpt lat="46.7735621799" lon="7.1066987794"><ele></ele><time>2014-4-27T11:56:47Z</time></trkpt>
<trkpt lat="46.7731552385" lon="7.1074090619"><ele></ele><time>2014-4-27T11:56:50Z</time></trkpt>
<trkpt lat="46.7726982571" lon="7.1083289757"><ele></ele><time>2014-4-27T11:56:53Z</time></trkpt>
<trkpt lat="46.7722379230" lon="7.1090122685"><ele></ele><time>2014-4-27T11:56:56Z</time></trkpt>
<trkpt lat="46.7720955145" lon="7.1094816551"><ele></ele><time>2014-4-27T11:56:59Z</time></trkpt>
<trkpt lat="46.7719833646" lon="7.1101090405"><ele></ele><time>2014-4-27T11:57:2Z</time></trkpt>
<trkpt lat="46.7718166485" lon="7.1104996372"><ele></ele><time>2014-4-27T11:57:5Z</time></trkpt>
<trkpt lat="46.7714493535" lon="7.1112229954"><ele></ele><time>2014-4-27T11:57:8Z</time></trkpt>
<trkpt lat="46.7710927874" lon="7.1119138319"><ele></ele><time>2014-4-27T11:57:11Z</time></trkpt>
<trkpt lat="46.7708519753" lon="7.1123884153"><ele></ele><time>2014-4-27T11:57:14Z</time></trkpt>
<trkpt lat="46.7707946431" lon="7.1124984697"><ele></ele><time>2014-4-27T11:57:17Z</time></trkpt>
<trkpt lat="46.7705268413" lon="7.1133297868"><ele></ele><time>2014-4-27T11:57:20Z</time></trkpt>
<trkpt lat="46.7703612149" lon="7.1145178378"><ele></ele><time>2014-4-27T11:57:23Z</time></trkpt>
<trkpt lat="46.7703409307" lon="7.1146574803"><ele></ele><time>2014-4-27T11:57:26Z</time></trkpt>
<trkpt lat="46.7700207420" lon="7.1151314769"><ele></ele><time>2014-4-27T11:57:29Z</time></trkpt>
<trkpt lat="46.7698315624" lon="7.1149789263"><ele></ele><time>2014-4-27T11:57:32Z</time></trkpt>
<trkpt lat="46.7697793432" lon="7.1147680376"><ele></ele><time>2014-4-27T11:57:35Z</time></trkpt>
<trkpt lat="46.7697017267" lon="7.1143005788"><ele></ele><time>2014-4-27T11:57:38Z</time></trkpt>
<trkpt lat="46.7694108747" lon="7.1139388159"><ele></ele><time>2014-4-27T11:57:41Z</time></trkpt>
<trkpt lat="46.7693206854" lon="7.1139544062"><ele></ele><time>2014-4-27T11:57:44Z</time></trkpt>
<trkpt lat="46.7683946528" lon="7.1142675541"><ele></ele><time>2014-4-27T11:57:47Z</time></trkpt>
<trkpt lat="46.7679280322" lon="7.1143977251"><ele></ele><time>2014-4-27T11:57:50Z</time></trkpt>
<trkpt lat="46.7676553689" lon="7.1143859904"><ele></ele><time>2014-4-27T11:57:53Z</time></trkpt>
<trkpt lat="46.7674336676" lon="7.1141270734"><ele></ele><time>2014-4-27T11:57:56Z</time></trkpt>
<trkpt lat="46.7671370320" lon="7.1137663163"><ele></ele><time>2014-4-27T11:57:59Z</time></trkpt>
<trkpt lat="46.7668948788" lon="7.1134711057"><ele></ele><time>2014-4-27T11:58:2Z</time></trkpt>
<trkpt lat="46.7667769454" lon="7.1133204829"><ele></ele><time>2014-4-27T11:58:5Z</time></trkpt>
<trkpt lat="46.7663544137" lon="7.1128321532"><ele></ele><time>2014-4-27T11:58:8Z</time></trkpt>
<trkpt lat="46.7663084809" lon="7.1127849631"><ele></ele><time>2014-4-27T11:58:11Z</time></trkpt>
<trkpt lat="46.7660221551" lon="7.1125868149"><ele></ele><time>2014-4-27T11:58:14Z</time></trkpt>
<trkpt lat="46.7660063971" lon="7.1127870586"><ele></ele><time>2014-4-27T11:58:17Z</time></trkpt>
<trkpt lat="46.7660609633" lon="7.1135754604"><ele></ele><time>2014-4-27T11:58:20Z</time></trkpt>
<trkpt lat="46.7660550959" lon="7.1140632033"><ele></ele><time>2014-4-27T11:58:23Z</time></trkpt>
<trkpt lat="46.7659458797" lon="7.1143194381"><ele></ele><time>2014-4-27T11:58:26Z</time></trkpt>
<trkpt lat="46.7657236755" lon="7.1147357672"><ele></ele><time>2014-4-27T11:58:29Z</time></trkpt>
<trkpt lat="46.7656774074" lon="7.1147847176"><ele></ele><time>2014-4-27T11:58:32Z</time></trkpt>
<trkpt lat="46.7655426264" lon="7.1148910001"><ele></ele><time>2014-4-27T11:58:35Z</time></trkpt>
<trkpt lat="46.7651627585" lon="7.1155563556"><ele></ele><time>2014-4-27T11:58:38Z</time></trkpt>
<trkpt lat="46.7651049234" lon="7.1159464493"><ele></ele><time>2014-4-27T11:58:41Z</time></trkpt>
<trkpt lat="46.7652987130" lon="7.1166845597"><ele></ele><time>2014-4-27T11:58:44Z</time></trkpt>
<trkpt lat="46.7653600685" lon="7.1167720668"><ele></ele><time>2014-4-27T11:58:47Z</time></trkpt>
<trkpt lat="46.7655404471" lon="7.1170272119"><ele></ele><time>2014-4-27T11:58:50Z</time></trkpt>
<trkpt lat="46.7656407785" lon="7.1174740512"><ele></ele><time>2014-4-27T11:58:53Z</time></trkpt>
<trkpt lat="46.7654275429" lon="7.1174874622"><ele></ele><time>2014-4-27T11:58:56Z</time></trkpt>
<trkpt lat="46.7652625032" lon="7.1173507534"><ele></ele><time>2014-4-27T11:58:59Z</time></trkpt>
<trkpt lat="46.7651229445" lon="7.1172673535"><ele></ele><time>2014-4-27T11:59:2Z</time></trkpt>
<trkpt lat="46.7650024965" lon="7.1169232763"><ele></ele><time>2014-4-27T11:59:5Z</time></trkpt>
<trkpt lat="46.7649142351" lon="7.1166500263"><ele></ele><time>2014-4-27T11:59:8Z</time></trkpt>
<trkpt lat="46.7648009956" lon="7.1164744254"><ele></ele><time>2014-4-27T11:59:11Z</time></trkpt>
<trkpt lat="46.7647014186" lon="7.1162099764"><ele></ele><time>2014-4-27T11:59:14Z</time></trkpt>
<trkpt lat="46.7646357883" lon="7.1155300364"><ele></ele><time>2014-4-27T11:59:17Z</time></trkpt>
<trkpt lat="46.7645764444" lon="7.1152116917"><ele></ele><time>2014-4-27T11:59:20Z</time></trkpt>
<trkpt lat="46.7645165138" lon="7.1150206681"><ele></ele><time>2014-4-27T11:59:23Z</time></trkpt>
<trkpt lat="46.7645157594" lon="7.1150158066"><ele></ele><time>2014-4-27T11:59:26Z</time></trkpt>
<trkpt lat="46.7645157594" lon="7.1150158066"><ele></ele><time>2014-4-27T11:59:29Z</time></trkpt>
<trkpt lat="46.7645100597" lon="7.1150178183"><ele></ele><time>2014-4-27T11:59:32Z</time></trkpt>
<trkpt lat="46.7644796334" lon="7.1150179021"><ele></ele><time>2014-4-27T11:59:35Z</time></trkpt>
<trkpt lat="46.7645632848" lon="7.1152396034"><ele></ele><time>2014-4-27T11:59:38Z</time></trkpt>
<trkpt lat="46.7645724211" lon="7.1155256778"><ele></ele><time>2014-4-27T11:59:41Z</time></trkpt>
<trkpt lat="46.7645974830" lon="7.1157193836"><ele></ele><time>2014-4-27T11:59:44Z</time></trkpt>
<trkpt lat="46.7646218743" lon="7.1159437671"><ele></ele><time>2014-4-27T11:59:47Z</time></trkpt>
<trkpt lat="46.7646888457" lon="7.1163603477"><ele></ele><time>2014-4-27T11:59:50Z</time></trkpt>
<trkpt lat="46.7648589145" lon="7.1166892536"><ele></ele><time>2014-4-27T11:59:53Z</time></trkpt>
<trkpt lat="46.7650184222" lon="7.1170914173"><ele></ele><time>2014-4-27T11:59:56Z</time></trkpt>
<trkpt lat="46.7651138082" lon="7.1172787528"><ele></ele><time>2014-4-27T11:59:59Z</time></trkpt>
<trkpt lat="46.7651447374" lon="7.1172867157"><ele></ele><time>2014-4-27T12:0:2Z</time></trkpt>
<trkpt lat="46.7653376050" lon="7.1175764780"><ele></ele><time>2014-4-27T12:0:5Z</time></trkpt>
<trkpt lat="46.7654304765" lon="7.1177384164"><ele></ele><time>2014-4-27T12:0:8Z</time></trkpt>
<trkpt lat="46.7653338332" lon="7.1180266701"><ele></ele><time>2014-4-27T12:0:11Z</time></trkpt>
<trkpt lat="46.7654138803" lon="7.1184124053"><ele></ele><time>2014-4-27T12:0:14Z</time></trkpt>
<trkpt lat="46.7656392697" lon="7.1184600983"><ele></ele><time>2014-4-27T12:0:17Z</time></trkpt>
<trkpt lat="46.7669373751" lon="7.1178858541"><ele></ele><time>2014-4-27T12:0:20Z</time></trkpt>
<trkpt lat="46.7674201727" lon="7.1178868599"><ele></ele><time>2014-4-27T12:0:23Z</time></trkpt>
<trkpt lat="46.7676187400" lon="7.1179816592"><ele></ele><time>2014-4-27T12:0:26Z</time></trkpt>
<trkpt lat="46.7679033056" lon="7.1184237208"><ele></ele><time>2014-4-27T12:0:29Z</time></trkpt>
<trkpt lat="46.7679405212" lon="7.1186396386"><ele></ele><time>2014-4-27T12:0:32Z</time></trkpt>
<trkpt lat="46.7680092528" lon="7.1190551296"><ele></ele><time>2014-4-27T12:0:35Z</time></trkpt>
<trkpt lat="46.7680775654" lon="7.1194193233"><ele></ele><time>2014-4-27T12:0:38Z</time></trkpt>
<trkpt lat="46.7682381626" lon="7.1198834293"><ele></ele><time>2014-4-27T12:0:41Z</time></trkpt>
<trkpt lat="46.7684796453" lon="7.1201064717"><ele></ele><time>2014-4-27T12:0:44Z</time></trkpt>
<trkpt lat="46.7687984090" lon="7.1203202102"><ele></ele><time>2014-4-27T12:0:47Z</time></trkpt>
<trkpt lat="46.7688788753" lon="7.1203323640"><ele></ele><time>2014-4-27T12:0:50Z</time></trkpt>
<trkpt lat="46.7690120637" lon="7.1200712677"><ele></ele><time>2014-4-27T12:0:53Z</time></trkpt>
<trkpt lat="46.7692766804" lon="7.1198908053"><ele></ele><time>2014-4-27T12:0:56Z</time></trkpt>
<trkpt lat="46.7694870662" lon="7.1201238222"><ele></ele><time>2014-4-27T12:0:59Z</time></trkpt>
<trkpt lat="46.7695734836" lon="7.1203026082"><ele></ele><time>2014-4-27T12:1:2Z</time></trkpt>
<trkpt lat="46.7696384434" lon="7.1205043606"><ele></ele><time>2014-4-27T12:1:5Z</time></trkpt>
<trkpt lat="46.7698119488" lon="7.1209040098"><ele></ele><time>2014-4-27T12:1:8Z</time></trkpt>
<trkpt lat="46.7698874697" lon="7.1212977078"><ele></ele><time>2014-4-27T12:1:11Z</time></trkpt>
<trkpt lat="46.7698154692" lon="7.1215555351"><ele></ele><time>2014-4-27T12:1:14Z</time></trkpt>
<trkpt lat="46.7698022258" lon="7.1216641646"><ele></ele><time>2014-4-27T12:1:17Z</time></trkpt>
<trkpt lat="46.7697231844" lon="7.1220303699"><ele></ele><time>2014-4-27T12:1:20Z</time></trkpt>
<trkpt lat="46.7696839571" lon="7.1224164404"><ele></ele><time>2014-4-27T12:1:23Z</time></trkpt>
<trkpt lat="46.7696388625" lon="7.1228653751"><ele></ele><time>2014-4-27T12:1:26Z</time></trkpt>
<trkpt lat="46.7694708891" lon="7.1234324109"><ele></ele><time>2014-4-27T12:1:29Z</time></trkpt>
<trkpt lat="46.7694502696" lon="7.1234892402"><ele></ele><time>2014-4-27T12:1:32Z</time></trkpt>
<trkpt lat="46.7693909258" lon="7.1237445530"><ele></ele><time>2014-4-27T12:1:35Z</time></trkpt>
<trkpt lat="46.7693379521" lon="7.1240061522"><ele></ele><time>2014-4-27T12:1:38Z</time></trkpt>
<trkpt lat="46.7693273909" lon="7.1243054699"><ele></ele><time>2014-4-27T12:1:41Z</time></trkpt>
<trkpt lat="46.7693240382" lon="7.1252010763"><ele></ele><time>2014-4-27T12:1:44Z</time></trkpt>
<trkpt lat="46.7693329230" lon="7.1258074231"><ele></ele><time>2014-4-27T12:1:47Z</time></trkpt>
<trkpt lat="46.7694002297" lon="7.1264037956"><ele></ele><time>2014-4-27T12:1:50Z</time></trkpt>
<trkpt lat="46.7694243696" lon="7.1265322063"><ele></ele><time>2014-4-27T12:1:53Z</time></trkpt>
<trkpt lat="46.7694045883" lon="7.1267457772"><ele></ele><time>2014-4-27T12:1:56Z</time></trkpt>
<trkpt lat="46.7694033310" lon="7.1267787181"><ele></ele><time>2014-4-27T12:1:59Z</time></trkpt>
<trkpt lat="46.7693962064" lon="7.1267985832"><ele></ele><time>2014-4-27T12:2:2Z</time></trkpt>
<trkpt lat="46.7694164906" lon="7.1269829012"><ele></ele><time>2014-4-27T12:2:5Z</time></trkpt>
<trkpt lat="46.7694184184" lon="7.1269937139"><ele></ele><time>2014-4-27T12:2:8Z</time></trkpt>
<trkpt lat="46.7694184184" lon="7.1269937139"><ele></ele><time>2014-4-27T12:2:11Z</time></trkpt>
<trkpt lat="46.7695683707" lon="7.1272741724"><ele></ele><time>2014-4-27T12:2:14Z</time></trkpt>
<trkpt lat="46.7698015552" lon="7.1275211032"><ele></ele><time>2014-4-27T12:2:17Z</time></trkpt>
<trkpt lat="46.7701772321" lon="7.1277701296"><ele></ele><time>2014-4-27T12:2:20Z</time></trkpt>
<trkpt lat="46.7702396773" lon="7.1277787630"><ele></ele><time>2014-4-27T12:2:23Z</time></trkpt>
<trkpt lat="46.7702635657" lon="7.1277899947"><ele></ele><time>2014-4-27T12:2:26Z</time></trkpt>
<trkpt lat="46.7703633104" lon="7.1277963649"><ele></ele><time>2014-4-27T12:2:29Z</time></trkpt>
<trkpt lat="46.7705671582" lon="7.1277617477"><ele></ele><time>2014-4-27T12:2:32Z</time></trkpt>
<trkpt lat="46.7708767857" lon="7.1276654396"><ele></ele><time>2014-4-27T12:2:35Z</time></trkpt>
<trkpt lat="46.7708886042" lon="7.1276606619"><ele></ele><time>2014-4-27T12:2:38Z</time></trkpt>
<trkpt lat="46.7709129956" lon="7.1276165731"><ele></ele><time>2014-4-27T12:2:41Z</time></trkpt>
<trkpt lat="46.7709205393" lon="7.1276113763"><ele></ele><time>2014-4-27T12:2:44Z</time></trkpt>
<trkpt lat="46.7710139975" lon="7.1275642700"><ele></ele><time>2014-4-27T12:2:47Z</time></trkpt>
<trkpt lat="46.7711126525" lon="7.1275162417"><ele></ele><time>2014-4-27T12:2:50Z</time></trkpt>
<trkpt lat="46.7712850682" lon="7.1273988113"><ele></ele><time>2014-4-27T12:2:53Z</time></trkpt>
<trkpt lat="46.7714615911" lon="7.1271443367"><ele></ele><time>2014-4-27T12:2:56Z</time></trkpt>
<trkpt lat="46.7716434784" lon="7.1270145010"><ele></ele><time>2014-4-27T12:2:59Z</time></trkpt>
<trkpt lat="46.7717974540" lon="7.1268692426"><ele></ele><time>2014-4-27T12:3:2Z</time></trkpt>
<trkpt lat="46.7718246952" lon="7.1265042946"><ele></ele><time>2014-4-27T12:3:5Z</time></trkpt>
<trkpt lat="46.7718190793" lon="7.1263550129"><ele></ele><time>2014-4-27T12:3:8Z</time></trkpt>
<trkpt lat="46.7718282994" lon="7.1261322219"><ele></ele><time>2014-4-27T12:3:11Z</time></trkpt>
<trkpt lat="46.7719629966" lon="7.1256636735"><ele></ele><time>2014-4-27T12:3:14Z</time></trkpt>
<trkpt lat="46.7720560357" lon="7.1254055947"><ele></ele><time>2014-4-27T12:3:17Z</time></trkpt>
<trkpt lat="46.7721342389" lon="7.1251797024"><ele></ele><time>2014-4-27T12:3:20Z</time></trkpt>
<trkpt lat="46.7722195666" lon="7.1248096414"><ele></ele><time>2014-4-27T12:3:23Z</time></trkpt>
<trkpt lat="46.7722122744" lon="7.1246073022"><ele></ele><time>2014-4-27T12:3:26Z</time></trkpt>
<trkpt lat="46.7723381706" lon="7.1240727883"><ele></ele><time>2014-4-27T12:3:29Z</time></trkpt>
<trkpt lat="46.7723944131" lon="7.1239530109"><ele></ele><time>2014-4-27T12:3:32Z</time></trkpt>
<trkpt lat="46.7724566907" lon="7.1238386817"><ele></ele><time>2014-4-27T12:3:35Z</time></trkpt>
<trkpt lat="46.7726031225" lon="7.1236308105"><ele></ele><time>2014-4-27T12:3:38Z</time></trkpt>
<trkpt lat="46.7726794817" lon="7.1235458180"><ele></ele><time>2014-4-27T12:3:41Z</time></trkpt>
<trkpt lat="46.7727461178" lon="7.1234615799"><ele></ele><time>2014-4-27T12:3:44Z</time></trkpt>
<trkpt lat="46.7730492912" lon="7.1230848972"><ele></ele><time>2014-4-27T12:3:47Z</time></trkpt>
<trkpt lat="46.7733165901" lon="7.1227595117"><ele></ele><time>2014-4-27T12:3:50Z</time></trkpt>
<trkpt lat="46.7733513750" lon="7.1227196977"><ele></ele><time>2014-4-27T12:3:53Z</time></trkpt>
<trkpt lat="46.7736458313" lon="7.1223846730"><ele></ele><time>2014-4-27T12:3:56Z</time></trkpt>
<trkpt lat="46.7737760022" lon="7.1222947352"><ele></ele><time>2014-4-27T12:3:59Z</time></trkpt>
<trkpt lat="46.7740170658" lon="7.1221022028"><ele></ele><time>2014-4-27T12:4:2Z</time></trkpt>
<trkpt lat="46.7741687782" lon="7.1220410988"><ele></ele><time>2014-4-27T12:4:5Z</time></trkpt>
<trkpt lat="46.7743245140" lon="7.1219398454"><ele></ele><time>2014-4-27T12:4:8Z</time></trkpt>
<trkpt lat="46.7745441198" lon="7.1220949106"><ele></ele><time>2014-4-27T12:4:11Z</time></trkpt>
<trkpt lat="46.7747950740" lon="7.1223850921"><ele></ele><time>2014-4-27T12:4:14Z</time></trkpt>
<trkpt lat="46.7749989219" lon="7.1225400735"><ele></ele><time>2014-4-27T12:4:17Z</time></trkpt>
<trkpt lat="46.7750625405" lon="7.1225918736"><ele></ele><time>2014-4-27T12:4:20Z</time></trkpt>
<trkpt lat="46.7751018517" lon="7.1226639580"><ele></ele><time>2014-4-27T12:4:23Z</time></trkpt>
<trkpt lat="46.7751470301" lon="7.1226533130"><ele></ele><time>2014-4-27T12:4:26Z</time></trkpt>
<trkpt lat="46.7751897778" lon="7.1227480285"><ele></ele><time>2014-4-27T12:4:29Z</time></trkpt>
<trkpt lat="46.7752237245" lon="7.1228952985"><ele></ele><time>2014-4-27T12:4:32Z</time></trkpt>
<trkpt lat="46.7753188591" lon="7.1229237970"><ele></ele><time>2014-4-27T12:4:35Z</time></trkpt>
<trkpt lat="46.7756465916" lon="7.1229662932"><ele></ele><time>2014-4-27T12:4:38Z</time></trkpt>
<trkpt lat="46.7758537084" lon="7.1229708195"><ele></ele><time>2014-4-27T12:4:41Z</time></trkpt>
<trkpt lat="46.7760640103" lon="7.1230428200"><ele></ele><time>2014-4-27T12:4:44Z</time></trkpt>
<trkpt lat="46.7763599753" lon="7.1231600828"><ele></ele><time>2014-4-27T12:4:47Z</time></trkpt>
<trkpt lat="46.7764198221" lon="7.1231509466"><ele></ele><time>2014-4-27T12:4:50Z</time></trkpt>
<trkpt lat="46.7765511665" lon="7.1231915150"><ele></ele><time>2014-4-27T12:4:53Z</time></trkpt>
<trkpt lat="46.7766236700" lon="7.1232371964"><ele></ele><time>2014-4-27T12:4:56Z</time></trkpt>
<trkpt lat="46.7768722773" lon="7.1234500967"><ele></ele><time>2014-4-27T12:4:59Z</time></trkpt>
<trkpt lat="46.7770026159" lon="7.1235930920"><ele></ele><time>2014-4-27T12:5:2Z</time></trkpt>
<trkpt lat="46.7772257421" lon="7.1237472352"><ele></ele><time>2014-4-27T12:5:5Z</time></trkpt>
<trkpt lat="46.7773865908" lon="7.1239287034"><ele></ele><time>2014-4-27T12:5:8Z</time></trkpt>
<trkpt lat="46.7775550671" lon="7.1241074894"><ele></ele><time>2014-4-27T12:5:11Z</time></trkpt>
<trkpt lat="46.7777398881" lon="7.1243950725"><ele></ele><time>2014-4-27T12:5:14Z</time></trkpt>
<trkpt lat="46.7777553108" lon="7.1244629659"><ele></ele><time>2014-4-27T12:5:17Z</time></trkpt>
<trkpt lat="46.7778541334" lon="7.1246527322"><ele></ele><time>2014-4-27T12:5:20Z</time></trkpt>
<trkpt lat="46.7780646868" lon="7.1248922870"><ele></ele><time>2014-4-27T12:5:23Z</time></trkpt>
<trkpt lat="46.7783464864" lon="7.1253271401"><ele></ele><time>2014-4-27T12:5:26Z</time></trkpt>
<trkpt lat="46.7786198203" lon="7.1258046571"><ele></ele><time>2014-4-27T12:5:29Z</time></trkpt>
<trkpt lat="46.7787515000" lon="7.1259943396"><ele></ele><time>2014-4-27T12:5:32Z</time></trkpt>
<trkpt lat="46.7788742948" lon="7.1261483990"><ele></ele><time>2014-4-27T12:5:35Z</time></trkpt>
<trkpt lat="46.7789289448" lon="7.1264067292"><ele></ele><time>2014-4-27T12:5:38Z</time></trkpt>
<trkpt lat="46.7789429426" lon="7.1264675818"><ele></ele><time>2014-4-27T12:5:41Z</time></trkpt>
<trkpt lat="46.7789633945" lon="7.1265017800"><ele></ele><time>2014-4-27T12:5:44Z</time></trkpt>
<trkpt lat="46.7790042982" lon="7.1264823340"><ele></ele><time>2014-4-27T12:5:47Z</time></trkpt>
<trkpt lat="46.7792403325" lon="7.1261768136"><ele></ele><time>2014-4-27T12:5:50Z</time></trkpt>
<trkpt lat="46.7793309409" lon="7.1259877179"><ele></ele><time>2014-4-27T12:5:53Z</time></trkpt>
<trkpt lat="46.7793237325" lon="7.1259818505"><ele></ele><time>2014-4-27T12:5:56Z</time></trkpt>
<trkpt lat="46.7793237325" lon="7.1259818505"><ele></ele><time>2014-4-27T12:5:59Z</time></trkpt>
<trkpt lat="46.7793478724" lon="7.1258338261"><ele></ele><time>2014-4-27T12:6:2Z</time></trkpt>
<trkpt lat="46.7793554161" lon="7.1256297268"><ele></ele><time>2014-4-27T12:6:5Z</time></trkpt>
<trkpt lat="46.7793426756" lon="7.1255645156"><ele></ele><time>2014-4-27T12:6:8Z</time></trkpt>
<trkpt lat="46.7792954855" lon="7.1254208498"><ele></ele><time>2014-4-27T12:6:11Z</time></trkpt>
<trkpt lat="46.7792129237" lon="7.1251397207"><ele></ele><time>2014-4-27T12:6:14Z</time></trkpt>
<trkpt lat="46.7791862693" lon="7.1248170175"><ele></ele><time>2014-4-27T12:6:17Z</time></trkpt>
<trkpt lat="46.7791155260" lon="7.1244505607"><ele></ele><time>2014-4-27T12:6:20Z</time></trkpt>
<trkpt lat="46.7790370714" lon="7.1240820084"><ele></ele><time>2014-4-27T12:6:23Z</time></trkpt>
<trkpt lat="46.7789833434" lon="7.1238877159"><ele></ele><time>2014-4-27T12:6:26Z</time></trkpt>
<trkpt lat="46.7789691780" lon="7.1238760650"><ele></ele><time>2014-4-27T12:6:29Z</time></trkpt>
<trkpt lat="46.7790198047" lon="7.1238972712"><ele></ele><time>2014-4-27T12:6:32Z</time></trkpt>
<trkpt lat="46.7791226506" lon="7.1240074933"><ele></ele><time>2014-4-27T12:6:35Z</time></trkpt>
<trkpt lat="46.7791720200" lon="7.1241076570"><ele></ele><time>2014-4-27T12:6:38Z</time></trkpt>
<trkpt lat="46.7791881133" lon="7.1241277736"><ele></ele><time>2014-4-27T12:6:41Z</time></trkpt>
<trkpt lat="46.7792929709" lon="7.1242353134"><ele></ele><time>2014-4-27T12:6:44Z</time></trkpt>
<trkpt lat="46.7793321982" lon="7.1242658235"><ele></ele><time>2014-4-27T12:6:47Z</time></trkpt>
<trkpt lat="46.7794037797" lon="7.1243563481"><ele></ele><time>2014-4-27T12:6:50Z</time></trkpt>
<trkpt lat="46.7794658896" lon="7.1244314499"><ele></ele><time>2014-4-27T12:6:53Z</time></trkpt>
<trkpt lat="46.7796020955" lon="7.1245327871"><ele></ele><time>2014-4-27T12:6:56Z</time></trkpt>
<trkpt lat="46.7796436697" lon="7.1245091502"><ele></ele><time>2014-4-27T12:6:59Z</time></trkpt>
<trkpt lat="46.7797066178" lon="7.1244896203"><ele></ele><time>2014-4-27T12:7:2Z</time></trkpt>
<trkpt lat="46.7797176819" lon="7.1244340483"><ele></ele><time>2014-4-27T12:7:5Z</time></trkpt>
<trkpt lat="46.7797361221" lon="7.1244570147"><ele></ele><time>2014-4-27T12:7:8Z</time></trkpt>
<trkpt lat="46.7798752617" lon="7.1244829148"><ele></ele><time>2014-4-27T12:7:11Z</time></trkpt>
<trkpt lat="46.7798881698" lon="7.1244916320"><ele></ele><time>2014-4-27T12:7:14Z</time></trkpt>
<trkpt lat="46.7799451668" lon="7.1245203819"><ele></ele><time>2014-4-27T12:7:17Z</time></trkpt>
<trkpt lat="46.7800113000" lon="7.1245741099"><ele></ele><time>2014-4-27T12:7:20Z</time></trkpt>
<trkpt lat="46.7800802831" lon="7.1246275865"><ele></ele><time>2014-4-27T12:7:23Z</time></trkpt>
<trkpt lat="46.7801359389" lon="7.1246840805"><ele></ele><time>2014-4-27T12:7:26Z</time></trkpt>
<trkpt lat="46.7802044190" lon="7.1247603558"><ele></ele><time>2014-4-27T12:7:29Z</time></trkpt>
<trkpt lat="46.7802312411" lon="7.1247650497"><ele></ele><time>2014-4-27T12:7:32Z</time></trkpt>
<trkpt lat="46.7803630885" lon="7.1247872617"><ele></ele><time>2014-4-27T12:7:35Z</time></trkpt>
<trkpt lat="46.7805149686" lon="7.1248804685"><ele></ele><time>2014-4-27T12:7:38Z</time></trkpt>
<trkpt lat="46.7806611490" lon="7.1250077896"><ele></ele><time>2014-4-27T12:7:41Z</time></trkpt>
<trkpt lat="46.7806813493" lon="7.1250216197"><ele></ele><time>2014-4-27T12:7:44Z</time></trkpt>
<trkpt lat="46.7808416951" lon="7.1251826361"><ele></ele><time>2014-4-27T12:7:47Z</time></trkpt>
<trkpt lat="46.7809327226" lon="7.1252984740"><ele></ele><time>2014-4-27T12:7:50Z</time></trkpt>
<trkpt lat="46.7810966726" lon="7.1254644357"><ele></ele><time>2014-4-27T12:7:53Z</time></trkpt>
<trkpt lat="46.7813350540" lon="7.1258163918"><ele></ele><time>2014-4-27T12:7:56Z</time></trkpt>
<trkpt lat="46.7815491278" lon="7.1261407714"><ele></ele><time>2014-4-27T12:7:59Z</time></trkpt>
<trkpt lat="46.7816478666" lon="7.1262337267"><ele></ele><time>2014-4-27T12:8:2Z</time></trkpt>
<trkpt lat="46.7818642873" lon="7.1264814958"><ele></ele><time>2014-4-27T12:8:5Z</time></trkpt>
<trkpt lat="46.7819797061" lon="7.1265399177"><ele></ele><time>2014-4-27T12:8:8Z</time></trkpt>
<trkpt lat="46.7820077017" lon="7.1265363973"><ele></ele><time>2014-4-27T12:8:11Z</time></trkpt>
<trkpt lat="46.7821742501" lon="7.1266487148"><ele></ele><time>2014-4-27T12:8:14Z</time></trkpt>
<trkpt lat="46.7823739909" lon="7.1265937295"><ele></ele><time>2014-4-27T12:8:17Z</time></trkpt>
<trkpt lat="46.7829111032" lon="7.1266824100"><ele></ele><time>2014-4-27T12:8:20Z</time></trkpt>
<trkpt lat="46.7831046414" lon="7.1265955735"><ele></ele><time>2014-4-27T12:8:23Z</time></trkpt>
<trkpt lat="46.7835462000" lon="7.1262893826"><ele></ele><time>2014-4-27T12:8:26Z</time></trkpt>
<trkpt lat="46.7836129200" lon="7.1263038833"><ele></ele><time>2014-4-27T12:8:29Z</time></trkpt>
<trkpt lat="46.7839186918" lon="7.1263508219"><ele></ele><time>2014-4-27T12:8:32Z</time></trkpt>
<trkpt lat="46.7846665252" lon="7.1263128519"><ele></ele><time>2014-4-27T12:8:35Z</time></trkpt>
<trkpt lat="46.7853890453" lon="7.1263348125"><ele></ele><time>2014-4-27T12:8:38Z</time></trkpt>
<trkpt lat="46.7859151773" lon="7.1263882890"><ele></ele><time>2014-4-27T12:8:41Z</time></trkpt>
<trkpt lat="46.7860741820" lon="7.1265399177"><ele></ele><time>2014-4-27T12:8:44Z</time></trkpt>
<trkpt lat="46.7861814704" lon="7.1267962363"><ele></ele><time>2014-4-27T12:8:47Z</time></trkpt>
<trkpt lat="46.7862833105" lon="7.1273582429"><ele></ele><time>2014-4-27T12:8:50Z</time></trkpt>
<trkpt lat="46.7864517868" lon="7.1278101951"><ele></ele><time>2014-4-27T12:8:53Z</time></trkpt>
<trkpt lat="46.7865661997" lon="7.1278996300"><ele></ele><time>2014-4-27T12:8:56Z</time></trkpt>
<trkpt lat="46.7868730612" lon="7.1283628978"><ele></ele><time>2014-4-27T12:8:59Z</time></trkpt>
<trkpt lat="46.7871730495" lon="7.1287912130"><ele></ele><time>2014-4-27T12:9:2Z</time></trkpt>
<trkpt lat="46.7875385843" lon="7.1292160917"><ele></ele><time>2014-4-27T12:9:5Z</time></trkpt>
<trkpt lat="46.7879031971" lon="7.1297632623"><ele></ele><time>2014-4-27T12:9:8Z</time></trkpt>
<trkpt lat="46.7882887647" lon="7.1303240117"><ele></ele><time>2014-4-27T12:9:11Z</time></trkpt>
<trkpt lat="46.7885871604" lon="7.1309159417"><ele></ele><time>2014-4-27T12:9:14Z</time></trkpt>
<trkpt lat="46.7887089495" lon="7.1316688042"><ele></ele><time>2014-4-27T12:9:17Z</time></trkpt>
<trkpt lat="46.7888044193" lon="7.1325153764"><ele></ele><time>2014-4-27T12:9:20Z</time></trkpt>
<trkpt lat="46.7888454068" lon="7.1333613619"><ele></ele><time>2014-4-27T12:9:23Z</time></trkpt>
<trkpt lat="46.7888222728" lon="7.1340627596"><ele></ele><time>2014-4-27T12:9:26Z</time></trkpt>
<trkpt lat="46.7888505198" lon="7.1347747184"><ele></ele><time>2014-4-27T12:9:29Z</time></trkpt>
<trkpt lat="46.7890873086" lon="7.1353434306"><ele></ele><time>2014-4-27T12:9:32Z</time></trkpt>
<trkpt lat="46.7895329744" lon="7.1361863986"><ele></ele><time>2014-4-27T12:9:35Z</time></trkpt>
<trkpt lat="46.7899525724" lon="7.1369764768"><ele></ele><time>2014-4-27T12:9:38Z</time></trkpt>
<trkpt lat="46.7902931292" lon="7.1377556585"><ele></ele><time>2014-4-27T12:9:41Z</time></trkpt>
<trkpt lat="46.7904604319" lon="7.1383700520"><ele></ele><time>2014-4-27T12:9:44Z</time></trkpt>
<trkpt lat="46.7905895133" lon="7.1390581224"><ele></ele><time>2014-4-27T12:9:47Z</time></trkpt>
<trkpt lat="46.7907081172" lon="7.1396551654"><ele></ele><time>2014-4-27T12:9:50Z</time></trkpt>
<trkpt lat="46.7909029126" lon="7.1406018175"><ele></ele><time>2014-4-27T12:9:53Z</time></trkpt>
<trkpt lat="46.7911886517" lon="7.1418896969"><ele></ele><time>2014-4-27T12:9:56Z</time></trkpt>
<trkpt lat="46.7912324890" lon="7.1420181077"><ele></ele><time>2014-4-27T12:9:59Z</time></trkpt>
<trkpt lat="46.7915166356" lon="7.1426283102"><ele></ele><time>2014-4-27T12:10:2Z</time></trkpt>
<trkpt lat="46.7920592800" lon="7.1432179771"><ele></ele><time>2014-4-27T12:10:5Z</time></trkpt>
<trkpt lat="46.7925379705" lon="7.1434309613"><ele></ele><time>2014-4-27T12:10:8Z</time></trkpt>
<trkpt lat="46.7934057489" lon="7.1434069891"><ele></ele><time>2014-4-27T12:10:11Z</time></trkpt>
<trkpt lat="46.7941697594" lon="7.1434462164"><ele></ele><time>2014-4-27T12:10:14Z</time></trkpt>
<trkpt lat="46.7944670655" lon="7.1436908003"><ele></ele><time>2014-4-27T12:10:17Z</time></trkpt>
<trkpt lat="46.7945882678" lon="7.1438321192"><ele></ele><time>2014-4-27T12:10:20Z</time></trkpt>
<trkpt lat="46.7947133258" lon="7.1440437622"><ele></ele><time>2014-4-27T12:10:23Z</time></trkpt>
<trkpt lat="46.7947454285" lon="7.1443330217"><ele></ele><time>2014-4-27T12:10:26Z</time></trkpt>
<trkpt lat="46.7947266530" lon="7.1442980692"><ele></ele><time>2014-4-27T12:10:29Z</time></trkpt>
<trkpt lat="46.7947414052" lon="7.1442990750"><ele></ele><time>2014-4-27T12:10:32Z</time></trkpt>
<trkpt lat="46.7947270721" lon="7.1443200298"><ele></ele><time>2014-4-27T12:10:35Z</time></trkpt>
<trkpt lat="46.7947270721" lon="7.1443200298"><ele></ele><time>2014-4-27T12:10:38Z</time></trkpt>
<trkpt lat="46.7947270721" lon="7.1443200298"><ele></ele><time>2014-4-27T12:10:41Z</time></trkpt>
<trkpt lat="46.7947293352" lon="7.1443279926"><ele></ele><time>2014-4-27T12:10:44Z</time></trkpt>
<trkpt lat="46.7947293352" lon="7.1443279926"><ele></ele><time>2014-4-27T12:10:47Z</time></trkpt>
<trkpt lat="46.7947293352" lon="7.1443258971"><ele></ele><time>2014-4-27T12:10:50Z</time></trkpt>
<trkpt lat="46.7947293352" lon="7.1443258971"><ele></ele><time>2014-4-27T12:10:53Z</time></trkpt>
<trkpt lat="46.7947325204" lon="7.1443273220"><ele></ele><time>2014-4-27T12:10:56Z</time></trkpt>
<trkpt lat="46.7947331909" lon="7.1443283278"><ele></ele><time>2014-4-27T12:10:59Z</time></trkpt>
<trkpt lat="46.7947322689" lon="7.1443338599"><ele></ele><time>2014-4-27T12:11:2Z</time></trkpt>
<trkpt lat="46.7947322689" lon="7.1443338599"><ele></ele><time>2014-4-27T12:11:5Z</time></trkpt>
<trkpt lat="46.7947311793" lon="7.1443082113"><ele></ele><time>2014-4-27T12:11:8Z</time></trkpt>
<trkpt lat="46.7947103921" lon="7.1442806348"><ele></ele><time>2014-4-27T12:11:11Z</time></trkpt>
<trkpt lat="46.7947290838" lon="7.1442880109"><ele></ele><time>2014-4-27T12:11:14Z</time></trkpt>
<trkpt lat="46.7947269883" lon="7.1442782879"><ele></ele><time>2014-4-27T12:11:17Z</time></trkpt>
<trkpt lat="46.7947269883" lon="7.1442782879"><ele></ele><time>2014-4-27T12:11:20Z</time></trkpt>
<trkpt lat="46.7947248928" lon="7.1442802157"><ele></ele><time>2014-4-27T12:11:23Z</time></trkpt>
<trkpt lat="46.7947248928" lon="7.1442802157"><ele></ele><time>2014-4-27T12:11:26Z</time></trkpt>
<trkpt lat="46.7947269045" lon="7.1442761924"><ele></ele><time>2014-4-27T12:11:29Z</time></trkpt>
<trkpt lat="46.7947252281" lon="7.1442739293"><ele></ele><time>2014-4-27T12:11:32Z</time></trkpt>
<trkpt lat="46.7947252281" lon="7.1442739293"><ele></ele><time>2014-4-27T12:11:35Z</time></trkpt>
<trkpt lat="46.7947234679" lon="7.1442678105"><ele></ele><time>2014-4-27T12:11:38Z</time></trkpt>
<trkpt lat="46.7947220430" lon="7.1442682296"><ele></ele><time>2014-4-27T12:11:41Z</time></trkpt>
<trkpt lat="46.7947220430" lon="7.1442682296"><ele></ele><time>2014-4-27T12:11:44Z</time></trkpt>
<trkpt lat="46.7947236355" lon="7.1442703251"><ele></ele><time>2014-4-27T12:11:47Z</time></trkpt>
<trkpt lat="46.7947236355" lon="7.1442743484"><ele></ele><time>2014-4-27T12:11:50Z</time></trkpt>
<trkpt lat="46.7947236355" lon="7.1442743484"><ele></ele><time>2014-4-27T12:11:53Z</time></trkpt>
<trkpt lat="46.7947218753" lon="7.1442779526"><ele></ele><time>2014-4-27T12:11:56Z</time></trkpt>
<trkpt lat="46.7947218753" lon="7.1442779526"><ele></ele><time>2014-4-27T12:11:59Z</time></trkpt>
<trkpt lat="46.7947191093" lon="7.1442737617"><ele></ele><time>2014-4-27T12:12:2Z</time></trkpt>
<trkpt lat="46.7947191093" lon="7.1442737617"><ele></ele><time>2014-4-27T12:12:5Z</time></trkpt>
<trkpt lat="46.7947113980" lon="7.1442859992"><ele></ele><time>2014-4-27T12:12:8Z</time></trkpt>
<trkpt lat="46.7947113980" lon="7.1442859992"><ele></ele><time>2014-4-27T12:12:11Z</time></trkpt>
<trkpt lat="46.7947099730" lon="7.1442855801"><ele></ele><time>2014-4-27T12:12:14Z</time></trkpt>
<trkpt lat="46.7947087158" lon="7.1442704927"><ele></ele><time>2014-4-27T12:12:17Z</time></trkpt>
<trkpt lat="46.7947388906" lon="7.1442783717"><ele></ele><time>2014-4-27T12:12:20Z</time></trkpt>
<trkpt lat="46.7947780341" lon="7.1443089657"><ele></ele><time>2014-4-27T12:12:23Z</time></trkpt>
<trkpt lat="46.7947909422" lon="7.1443470195"><ele></ele><time>2014-4-27T12:12:26Z</time></trkpt>
<trkpt lat="46.7948199436" lon="7.1443714947"><ele></ele><time>2014-4-27T12:12:29Z</time></trkpt>
<trkpt lat="46.7948402278" lon="7.1442901902"><ele></ele><time>2014-4-27T12:12:32Z</time></trkpt>
<trkpt lat="46.7948036827" lon="7.1440788824"><ele></ele><time>2014-4-27T12:12:35Z</time></trkpt>
<trkpt lat="46.7945545726" lon="7.1436747070"><ele></ele><time>2014-4-27T12:12:38Z</time></trkpt>
<trkpt lat="46.7943184543" lon="7.1432560310"><ele></ele><time>2014-4-27T12:12:41Z</time></trkpt>
<trkpt lat="46.7944275867" lon="7.1427972056"><ele></ele><time>2014-4-27T12:12:44Z</time></trkpt>
<trkpt lat="46.7945352942" lon="7.1423029248"><ele></ele><time>2014-4-27T12:12:47Z</time></trkpt>
<trkpt lat="46.7945632897" lon="7.1417876892"><ele></ele><time>2014-4-27T12:12:50Z</time></trkpt>
<trkpt lat="46.7945542373" lon="7.1413411014"><ele></ele><time>2014-4-27T12:12:53Z</time></trkpt>
<trkpt lat="46.7945113219" lon="7.1409233473"><ele></ele><time>2014-4-27T12:12:56Z</time></trkpt>
<trkpt lat="46.7944354657" lon="7.1405468322"><ele></ele><time>2014-4-27T12:12:59Z</time></trkpt>
<trkpt lat="46.7943321168" lon="7.1403273940"><ele></ele><time>2014-4-27T12:13:2Z</time></trkpt>
<trkpt lat="46.7942764610" lon="7.1402087063"><ele></ele><time>2014-4-27T12:13:5Z</time></trkpt>
<trkpt lat="46.7940768879" lon="7.1401679702"><ele></ele><time>2014-4-27T12:13:8Z</time></trkpt>
<trkpt lat="46.7939517461" lon="7.1401952114"><ele></ele><time>2014-4-27T12:13:11Z</time></trkpt>
<trkpt lat="46.7939235829" lon="7.1401974745"><ele></ele><time>2014-4-27T12:13:14Z</time></trkpt>
<trkpt lat="46.7938741297" lon="7.1401971392"><ele></ele><time>2014-4-27T12:13:17Z</time></trkpt>
<trkpt lat="46.7938741297" lon="7.1401971392"><ele></ele><time>2014-4-27T12:13:20Z</time></trkpt>
<trkpt lat="46.7938741297" lon="7.1401971392"><ele></ele><time>2014-4-27T12:13:23Z</time></trkpt>
<trkpt lat="46.7938688491" lon="7.1401914395"><ele></ele><time>2014-4-27T12:13:26Z</time></trkpt>
<trkpt lat="46.7938688491" lon="7.1401914395"><ele></ele><time>2014-4-27T12:13:29Z</time></trkpt>
<trkpt lat="46.7938688491" lon="7.1401914395"><ele></ele><time>2014-4-27T12:13:32Z</time></trkpt>
</trkseg></trk></gpx>